<?xml version="1.0" encoding="UTF-8"?>
<gpx version="1.1" creator="2bulu-scraper" xmlns="http://www.topografix.com/GPX/1/1">
  <metadata><name>云顶寨</name><desc>source: 2bulu.com trackId=79162504; exported 2026-09-01T18:00:20.989Z</desc>
    <bounds minlat="29.222833" minlon="105.275128" maxlat="29.234413" maxlon="105.29039"/>
    <link href="https://www.2bulu.com/track/t-bpEPiS8oMWPp%252FR2KBg5Tzw%253D%253D.htm"><text>2bulu 源页面</text></link>
  </metadata>
  <wpt lat="29.225482" lon="105.27516"><ele>329</ele><name></name></wpt>
  <wpt lat="29.224095" lon="105.280005"><ele>356</ele><name></name></wpt>
  <wpt lat="29.223579" lon="105.280459"><ele>367</ele><name></name></wpt>
  <wpt lat="29.224352" lon="105.283502"><ele>425</ele><name></name></wpt>
  <wpt lat="29.224683" lon="105.283801"><ele>427</ele><name></name></wpt>
  <wpt lat="29.224708" lon="105.284563"><ele>441</ele><name></name></wpt>
  <wpt lat="29.224593" lon="105.28507"><ele>447</ele><name></name></wpt>
  <wpt lat="29.224621" lon="105.284985"><ele>447</ele><name></name></wpt>
  <wpt lat="29.225461" lon="105.285547"><ele>455</ele><name></name></wpt>
  <wpt lat="29.226097" lon="105.285962"><ele>458</ele><name></name></wpt>
  <wpt lat="29.226097" lon="105.285962"><ele>458</ele><name></name></wpt>
  <wpt lat="29.226877" lon="105.286329"><ele>456</ele><name></name></wpt>
  <wpt lat="29.226877" lon="105.286329"><ele>456</ele><name></name></wpt>
  <wpt lat="29.226843" lon="105.286517"><ele>459</ele><name></name></wpt>
  <wpt lat="29.226844" lon="105.286686"><ele>463</ele><name></name></wpt>
  <wpt lat="29.2267" lon="105.287394"><ele>472</ele><name></name></wpt>
  <wpt lat="29.226749" lon="105.287606"><ele>472</ele><name></name></wpt>
  <wpt lat="29.227572" lon="105.287665"><ele>472</ele><name></name></wpt>
  <wpt lat="29.227389" lon="105.287509"><ele>470</ele><name></name></wpt>
  <wpt lat="29.227486" lon="105.286329"><ele>452</ele><name></name></wpt>
  <wpt lat="29.233379" lon="105.283206"><ele>328</ele><name></name></wpt>
  <wpt lat="29.233056" lon="105.282529"><ele>333</ele><name></name></wpt>
  <wpt lat="29.22872" lon="105.278009"><ele>324</ele><name></name></wpt>
  <wpt lat="29.229036" lon="105.277024"><ele>322</ele><name></name></wpt>
  <wpt lat="29.228914" lon="105.276589"><ele>321</ele><name></name></wpt>
  <trk><name>云顶寨</name>
      <trkseg>
        <trkpt lat="29.225525" lon="105.275128"><ele>328.32602</ele><time>2026-02-13T19:15:15.000Z</time></trkpt>
        <trkpt lat="29.225503" lon="105.275144"><ele>328.52847</ele><time>2026-02-13T19:15:22.000Z</time></trkpt>
        <trkpt lat="29.225452" lon="105.275178"><ele>326.72684</ele><time>2026-02-13T19:15:25.000Z</time></trkpt>
        <trkpt lat="29.225397" lon="105.275238"><ele>326.03445</ele><time>2026-02-13T19:15:34.000Z</time></trkpt>
        <trkpt lat="29.225424" lon="105.275291"><ele>327.56174</ele><time>2026-02-13T19:15:48.000Z</time></trkpt>
        <trkpt lat="29.225417" lon="105.275327"><ele>327.76715</ele><time>2026-02-13T19:15:52.000Z</time></trkpt>
        <trkpt lat="29.22541" lon="105.275389"><ele>327.96024</ele><time>2026-02-13T19:15:57.000Z</time></trkpt>
        <trkpt lat="29.225422" lon="105.275445"><ele>328.18307</ele><time>2026-02-13T19:16:00.000Z</time></trkpt>
        <trkpt lat="29.225405" lon="105.275483"><ele>328.27112</ele><time>2026-02-13T19:16:03.000Z</time></trkpt>
        <trkpt lat="29.225381" lon="105.275539"><ele>328.70078</ele><time>2026-02-13T19:16:07.000Z</time></trkpt>
        <trkpt lat="29.225378" lon="105.27561"><ele>328.7813</ele><time>2026-02-13T19:16:13.000Z</time></trkpt>
        <trkpt lat="29.225389" lon="105.275667"><ele>329.0263</ele><time>2026-02-13T19:16:18.000Z</time></trkpt>
        <trkpt lat="29.22541" lon="105.275716"><ele>329.37485</ele><time>2026-02-13T19:16:23.000Z</time></trkpt>
        <trkpt lat="29.225432" lon="105.275769"><ele>329.56384</ele><time>2026-02-13T19:16:36.000Z</time></trkpt>
        <trkpt lat="29.225433" lon="105.27582"><ele>329.64844</ele><time>2026-02-13T19:16:41.000Z</time></trkpt>
        <trkpt lat="29.225431" lon="105.275879"><ele>329.25815</ele><time>2026-02-13T19:16:47.000Z</time></trkpt>
        <trkpt lat="29.225426" lon="105.275935"><ele>329.22064</ele><time>2026-02-13T19:16:52.000Z</time></trkpt>
        <trkpt lat="29.225415" lon="105.275995"><ele>329.3724</ele><time>2026-02-13T19:16:57.000Z</time></trkpt>
        <trkpt lat="29.225406" lon="105.276048"><ele>329.50403</ele><time>2026-02-13T19:17:01.000Z</time></trkpt>
        <trkpt lat="29.2254" lon="105.276096"><ele>329.69028</ele><time>2026-02-13T19:17:05.000Z</time></trkpt>
        <trkpt lat="29.225388" lon="105.27616"><ele>330.17102</ele><time>2026-02-13T19:17:09.000Z</time></trkpt>
        <trkpt lat="29.225377" lon="105.27622"><ele>330.43436</ele><time>2026-02-13T19:17:13.000Z</time></trkpt>
        <trkpt lat="29.225369" lon="105.276279"><ele>330.8975</ele><time>2026-02-13T19:17:18.000Z</time></trkpt>
        <trkpt lat="29.225375" lon="105.276336"><ele>330.54947</ele><time>2026-02-13T19:17:23.000Z</time></trkpt>
        <trkpt lat="29.225387" lon="105.276392"><ele>330.44528</ele><time>2026-02-13T19:17:29.000Z</time></trkpt>
        <trkpt lat="29.225423" lon="105.276433"><ele>331.38672</ele><time>2026-02-13T19:17:51.000Z</time></trkpt>
        <trkpt lat="29.225432" lon="105.276468"><ele>331.6055</ele><time>2026-02-13T19:17:54.000Z</time></trkpt>
        <trkpt lat="29.225446" lon="105.276524"><ele>332.18213</ele><time>2026-02-13T19:17:58.000Z</time></trkpt>
        <trkpt lat="29.225462" lon="105.276591"><ele>331.8842</ele><time>2026-02-13T19:18:03.000Z</time></trkpt>
        <trkpt lat="29.225473" lon="105.276646"><ele>331.6308</ele><time>2026-02-13T19:18:07.000Z</time></trkpt>
        <trkpt lat="29.225494" lon="105.2767"><ele>331.35715</ele><time>2026-02-13T19:18:12.000Z</time></trkpt>
        <trkpt lat="29.22552" lon="105.276745"><ele>331.23395</ele><time>2026-02-13T19:18:17.000Z</time></trkpt>
        <trkpt lat="29.225547" lon="105.276784"><ele>331.275</ele><time>2026-02-13T19:18:21.000Z</time></trkpt>
        <trkpt lat="29.225579" lon="105.276825"><ele>331.3357</ele><time>2026-02-13T19:18:25.000Z</time></trkpt>
        <trkpt lat="29.225612" lon="105.276869"><ele>331.2953</ele><time>2026-02-13T19:18:29.000Z</time></trkpt>
        <trkpt lat="29.225644" lon="105.276915"><ele>330.85156</ele><time>2026-02-13T19:18:33.000Z</time></trkpt>
        <trkpt lat="29.225674" lon="105.27696"><ele>330.8703</ele><time>2026-02-13T19:18:37.000Z</time></trkpt>
        <trkpt lat="29.225704" lon="105.277007"><ele>331.1692</ele><time>2026-02-13T19:18:41.000Z</time></trkpt>
        <trkpt lat="29.225732" lon="105.277063"><ele>331.40604</ele><time>2026-02-13T19:18:46.000Z</time></trkpt>
        <trkpt lat="29.225743" lon="105.277115"><ele>330.95328</ele><time>2026-02-13T19:18:50.000Z</time></trkpt>
        <trkpt lat="29.225748" lon="105.277171"><ele>330.33945</ele><time>2026-02-13T19:18:54.000Z</time></trkpt>
        <trkpt lat="29.225745" lon="105.277228"><ele>330.00943</ele><time>2026-02-13T19:18:58.000Z</time></trkpt>
        <trkpt lat="29.225731" lon="105.27729"><ele>329.78748</ele><time>2026-02-13T19:19:02.000Z</time></trkpt>
        <trkpt lat="29.225711" lon="105.277349"><ele>329.75253</ele><time>2026-02-13T19:19:06.000Z</time></trkpt>
        <trkpt lat="29.225688" lon="105.277401"><ele>329.68228</ele><time>2026-02-13T19:19:11.000Z</time></trkpt>
        <trkpt lat="29.225671" lon="105.277453"><ele>329.56494</ele><time>2026-02-13T19:19:15.000Z</time></trkpt>
        <trkpt lat="29.22566" lon="105.277505"><ele>329.46796</ele><time>2026-02-13T19:19:19.000Z</time></trkpt>
        <trkpt lat="29.225645" lon="105.277555"><ele>329.154</ele><time>2026-02-13T19:19:23.000Z</time></trkpt>
        <trkpt lat="29.225619" lon="105.277609"><ele>329.64218</ele><time>2026-02-13T19:19:28.000Z</time></trkpt>
        <trkpt lat="29.225587" lon="105.277661"><ele>330.50348</ele><time>2026-02-13T19:19:33.000Z</time></trkpt>
        <trkpt lat="29.225545" lon="105.277698"><ele>331.16858</ele><time>2026-02-13T19:19:37.000Z</time></trkpt>
        <trkpt lat="29.225506" lon="105.277739"><ele>331.93842</ele><time>2026-02-13T19:19:41.000Z</time></trkpt>
        <trkpt lat="29.225463" lon="105.277781"><ele>332.53687</ele><time>2026-02-13T19:19:46.000Z</time></trkpt>
        <trkpt lat="29.225428" lon="105.277813"><ele>333.25836</ele><time>2026-02-13T19:19:50.000Z</time></trkpt>
        <trkpt lat="29.225389" lon="105.277852"><ele>334.58188</ele><time>2026-02-13T19:19:54.000Z</time></trkpt>
        <trkpt lat="29.225354" lon="105.277891"><ele>335.39148</ele><time>2026-02-13T19:19:57.000Z</time></trkpt>
        <trkpt lat="29.225319" lon="105.277932"><ele>335.81412</ele><time>2026-02-13T19:20:01.000Z</time></trkpt>
        <trkpt lat="29.225277" lon="105.277976"><ele>335.79266</ele><time>2026-02-13T19:20:07.000Z</time></trkpt>
        <trkpt lat="29.225241" lon="105.278011"><ele>335.99677</ele><time>2026-02-13T19:20:12.000Z</time></trkpt>
        <trkpt lat="29.225208" lon="105.278049"><ele>336.6573</ele><time>2026-02-13T19:20:17.000Z</time></trkpt>
        <trkpt lat="29.225179" lon="105.278085"><ele>337.4546</ele><time>2026-02-13T19:20:21.000Z</time></trkpt>
        <trkpt lat="29.225147" lon="105.278124"><ele>337.8138</ele><time>2026-02-13T19:20:25.000Z</time></trkpt>
        <trkpt lat="29.225112" lon="105.278161"><ele>338.02536</ele><time>2026-02-13T19:20:29.000Z</time></trkpt>
        <trkpt lat="29.22507" lon="105.278204"><ele>338.22485</ele><time>2026-02-13T19:20:34.000Z</time></trkpt>
        <trkpt lat="29.225034" lon="105.278238"><ele>338.78442</ele><time>2026-02-13T19:20:38.000Z</time></trkpt>
        <trkpt lat="29.224998" lon="105.278271"><ele>339.05096</ele><time>2026-02-13T19:20:42.000Z</time></trkpt>
        <trkpt lat="29.224955" lon="105.278317"><ele>339.57996</ele><time>2026-02-13T19:20:47.000Z</time></trkpt>
        <trkpt lat="29.224914" lon="105.278364"><ele>339.3484</ele><time>2026-02-13T19:20:53.000Z</time></trkpt>
        <trkpt lat="29.224878" lon="105.278409"><ele>339.45047</ele><time>2026-02-13T19:20:58.000Z</time></trkpt>
        <trkpt lat="29.224849" lon="105.27845"><ele>339.8684</ele><time>2026-02-13T19:21:02.000Z</time></trkpt>
        <trkpt lat="29.224817" lon="105.278502"><ele>340.4646</ele><time>2026-02-13T19:21:11.000Z</time></trkpt>
        <trkpt lat="29.224789" lon="105.278549"><ele>340.7251</ele><time>2026-02-13T19:21:19.000Z</time></trkpt>
        <trkpt lat="29.224763" lon="105.278593"><ele>341.41336</ele><time>2026-02-13T19:21:23.000Z</time></trkpt>
        <trkpt lat="29.224734" lon="105.278643"><ele>342.12634</ele><time>2026-02-13T19:21:28.000Z</time></trkpt>
        <trkpt lat="29.224701" lon="105.278696"><ele>342.9554</ele><time>2026-02-13T19:21:33.000Z</time></trkpt>
        <trkpt lat="29.224673" lon="105.278739"><ele>343.41837</ele><time>2026-02-13T19:21:37.000Z</time></trkpt>
        <trkpt lat="29.224647" lon="105.278784"><ele>344.27844</ele><time>2026-02-13T19:21:41.000Z</time></trkpt>
        <trkpt lat="29.224618" lon="105.278835"><ele>344.3928</ele><time>2026-02-13T19:21:46.000Z</time></trkpt>
        <trkpt lat="29.224568" lon="105.278863"><ele>344.3493</ele><time>2026-02-13T19:24:54.000Z</time></trkpt>
        <trkpt lat="29.22455" lon="105.278876"><ele>344.52005</ele><time>2026-02-13T19:24:58.000Z</time></trkpt>
        <trkpt lat="29.224512" lon="105.278914"><ele>344.69788</ele><time>2026-02-13T19:25:02.000Z</time></trkpt>
        <trkpt lat="29.224465" lon="105.278968"><ele>344.79614</ele><time>2026-02-13T19:25:07.000Z</time></trkpt>
        <trkpt lat="29.224415" lon="105.279013"><ele>345.37494</ele><time>2026-02-13T19:25:12.000Z</time></trkpt>
        <trkpt lat="29.224376" lon="105.279056"><ele>345.7694</ele><time>2026-02-13T19:25:17.000Z</time></trkpt>
        <trkpt lat="29.224335" lon="105.279094"><ele>346.13824</ele><time>2026-02-13T19:25:22.000Z</time></trkpt>
        <trkpt lat="29.224295" lon="105.279125"><ele>346.9564</ele><time>2026-02-13T19:25:27.000Z</time></trkpt>
        <trkpt lat="29.224247" lon="105.279157"><ele>347.56287</ele><time>2026-02-13T19:25:32.000Z</time></trkpt>
        <trkpt lat="29.2242" lon="105.279189"><ele>348.01654</ele><time>2026-02-13T19:25:37.000Z</time></trkpt>
        <trkpt lat="29.224163" lon="105.279224"><ele>348.23438</ele><time>2026-02-13T19:25:42.000Z</time></trkpt>
        <trkpt lat="29.224132" lon="105.279268"><ele>348.40744</ele><time>2026-02-13T19:25:47.000Z</time></trkpt>
        <trkpt lat="29.224105" lon="105.279316"><ele>348.52512</ele><time>2026-02-13T19:25:52.000Z</time></trkpt>
        <trkpt lat="29.224084" lon="105.279372"><ele>348.78467</ele><time>2026-02-13T19:25:57.000Z</time></trkpt>
        <trkpt lat="29.224071" lon="105.279426"><ele>348.97186</ele><time>2026-02-13T19:26:02.000Z</time></trkpt>
        <trkpt lat="29.224064" lon="105.279484"><ele>349.67264</ele><time>2026-02-13T19:26:07.000Z</time></trkpt>
        <trkpt lat="29.22406" lon="105.27954"><ele>350.24255</ele><time>2026-02-13T19:26:12.000Z</time></trkpt>
        <trkpt lat="29.224056" lon="105.2796"><ele>350.96243</ele><time>2026-02-13T19:26:17.000Z</time></trkpt>
        <trkpt lat="29.224057" lon="105.27966"><ele>351.6247</ele><time>2026-02-13T19:26:22.000Z</time></trkpt>
        <trkpt lat="29.224063" lon="105.279719"><ele>352.50327</ele><time>2026-02-13T19:26:26.000Z</time></trkpt>
        <trkpt lat="29.224056" lon="105.279776"><ele>353.05856</ele><time>2026-02-13T19:26:31.000Z</time></trkpt>
        <trkpt lat="29.224062" lon="105.27983"><ele>353.48105</ele><time>2026-02-13T19:26:36.000Z</time></trkpt>
        <trkpt lat="29.224075" lon="105.279878"><ele>353.929</ele><time>2026-02-13T19:26:40.000Z</time></trkpt>
        <trkpt lat="29.224086" lon="105.279935"><ele>354.57855</ele><time>2026-02-13T19:26:45.000Z</time></trkpt>
        <trkpt lat="29.224095" lon="105.279998"><ele>355.4411</ele><time>2026-02-13T19:26:50.000Z</time></trkpt>
        <trkpt lat="29.224101" lon="105.280061"><ele>356.2956</ele><time>2026-02-13T19:26:56.000Z</time></trkpt>
        <trkpt lat="29.224096" lon="105.28012"><ele>356.82874</ele><time>2026-02-13T19:27:02.000Z</time></trkpt>
        <trkpt lat="29.224062" lon="105.280166"><ele>357.97775</ele><time>2026-02-13T19:27:10.000Z</time></trkpt>
        <trkpt lat="29.224031" lon="105.280204"><ele>358.9964</ele><time>2026-02-13T19:27:16.000Z</time></trkpt>
        <trkpt lat="29.223999" lon="105.28025"><ele>359.99692</ele><time>2026-02-13T19:27:26.000Z</time></trkpt>
        <trkpt lat="29.223951" lon="105.280263"><ele>360.75098</ele><time>2026-02-13T19:27:34.000Z</time></trkpt>
        <trkpt lat="29.2239" lon="105.280276"><ele>361.00528</ele><time>2026-02-13T19:27:42.000Z</time></trkpt>
        <trkpt lat="29.223856" lon="105.28031"><ele>361.93808</ele><time>2026-02-13T19:27:56.000Z</time></trkpt>
        <trkpt lat="29.223812" lon="105.280337"><ele>362.15915</ele><time>2026-02-13T19:28:04.000Z</time></trkpt>
        <trkpt lat="29.223759" lon="105.280363"><ele>362.87967</ele><time>2026-02-13T19:28:13.000Z</time></trkpt>
        <trkpt lat="29.223718" lon="105.280375"><ele>364.60028</ele><time>2026-02-13T19:28:18.000Z</time></trkpt>
        <trkpt lat="29.223688" lon="105.280403"><ele>365.1695</ele><time>2026-02-13T19:28:21.000Z</time></trkpt>
        <trkpt lat="29.223647" lon="105.280394"><ele>365.39648</ele><time>2026-02-13T19:28:25.000Z</time></trkpt>
        <trkpt lat="29.223612" lon="105.280414"><ele>365.70877</ele><time>2026-02-13T19:28:30.000Z</time></trkpt>
        <trkpt lat="29.22358" lon="105.28045"><ele>366.93246</ele><time>2026-02-13T19:28:35.000Z</time></trkpt>
        <trkpt lat="29.223544" lon="105.280482"><ele>367.745</ele><time>2026-02-13T19:28:39.000Z</time></trkpt>
        <trkpt lat="29.223493" lon="105.280513"><ele>369.1252</ele><time>2026-02-13T19:28:48.000Z</time></trkpt>
        <trkpt lat="29.223453" lon="105.280542"><ele>370.56628</ele><time>2026-02-13T19:28:56.000Z</time></trkpt>
        <trkpt lat="29.223413" lon="105.280558"><ele>370.79697</ele><time>2026-02-13T19:29:00.000Z</time></trkpt>
        <trkpt lat="29.223361" lon="105.280583"><ele>371.41852</ele><time>2026-02-13T19:29:05.000Z</time></trkpt>
        <trkpt lat="29.223314" lon="105.280615"><ele>372.10107</ele><time>2026-02-13T19:29:12.000Z</time></trkpt>
        <trkpt lat="29.22329" lon="105.280647"><ele>372.94528</ele><time>2026-02-13T19:29:15.000Z</time></trkpt>
        <trkpt lat="29.223239" lon="105.280675"><ele>374.2795</ele><time>2026-02-13T19:29:22.000Z</time></trkpt>
        <trkpt lat="29.22319" lon="105.280689"><ele>374.91843</ele><time>2026-02-13T19:29:29.000Z</time></trkpt>
        <trkpt lat="29.223142" lon="105.280704"><ele>375.10974</ele><time>2026-02-13T19:29:36.000Z</time></trkpt>
        <trkpt lat="29.223096" lon="105.28071"><ele>374.84915</ele><time>2026-02-13T19:29:44.000Z</time></trkpt>
        <trkpt lat="29.223048" lon="105.280719"><ele>375.94324</ele><time>2026-02-13T19:29:49.000Z</time></trkpt>
        <trkpt lat="29.222998" lon="105.280728"><ele>376.56348</ele><time>2026-02-13T19:29:55.000Z</time></trkpt>
        <trkpt lat="29.222951" lon="105.280721"><ele>375.95114</ele><time>2026-02-13T19:30:02.000Z</time></trkpt>
        <trkpt lat="29.222906" lon="105.280715"><ele>376.59045</ele><time>2026-02-13T19:30:07.000Z</time></trkpt>
        <trkpt lat="29.222858" lon="105.280723"><ele>377.72116</ele><time>2026-02-13T19:30:12.000Z</time></trkpt>
        <trkpt lat="29.222836" lon="105.280756"><ele>378.15176</ele><time>2026-02-13T19:30:15.000Z</time></trkpt>
        <trkpt lat="29.222833" lon="105.280816"><ele>379.4797</ele><time>2026-02-13T19:30:20.000Z</time></trkpt>
        <trkpt lat="29.222881" lon="105.280841"><ele>380.74722</ele><time>2026-02-13T19:30:27.000Z</time></trkpt>
        <trkpt lat="29.222916" lon="105.28088"><ele>381.81018</ele><time>2026-02-13T19:30:37.000Z</time></trkpt>
        <trkpt lat="29.222956" lon="105.280905"><ele>382.7365</ele><time>2026-02-13T19:30:45.000Z</time></trkpt>
        <trkpt lat="29.223004" lon="105.280924"><ele>383.57706</ele><time>2026-02-13T19:30:51.000Z</time></trkpt>
        <trkpt lat="29.223049" lon="105.280944"><ele>383.92474</ele><time>2026-02-13T19:30:56.000Z</time></trkpt>
        <trkpt lat="29.223091" lon="105.280971"><ele>385.39514</ele><time>2026-02-13T19:31:01.000Z</time></trkpt>
        <trkpt lat="29.223139" lon="105.280998"><ele>385.74194</ele><time>2026-02-13T19:31:08.000Z</time></trkpt>
        <trkpt lat="29.223186" lon="105.281015"><ele>386.12085</ele><time>2026-02-13T19:31:12.000Z</time></trkpt>
        <trkpt lat="29.223236" lon="105.28104"><ele>386.90564</ele><time>2026-02-13T19:31:17.000Z</time></trkpt>
        <trkpt lat="29.223287" lon="105.281073"><ele>388.43317</ele><time>2026-02-13T19:31:23.000Z</time></trkpt>
        <trkpt lat="29.223322" lon="105.281122"><ele>388.7225</ele><time>2026-02-13T19:31:29.000Z</time></trkpt>
        <trkpt lat="29.223341" lon="105.28118"><ele>389.81296</ele><time>2026-02-13T19:31:37.000Z</time></trkpt>
        <trkpt lat="29.223354" lon="105.281229"><ele>390.5716</ele><time>2026-02-13T19:31:45.000Z</time></trkpt>
        <trkpt lat="29.223355" lon="105.281277"><ele>391.0024</ele><time>2026-02-13T19:31:50.000Z</time></trkpt>
        <trkpt lat="29.223372" lon="105.281328"><ele>391.9542</ele><time>2026-02-13T19:31:55.000Z</time></trkpt>
        <trkpt lat="29.223382" lon="105.281389"><ele>392.75775</ele><time>2026-02-13T19:32:01.000Z</time></trkpt>
        <trkpt lat="29.2234" lon="105.281441"><ele>393.78802</ele><time>2026-02-13T19:32:06.000Z</time></trkpt>
        <trkpt lat="29.223443" lon="105.281464"><ele>393.91248</ele><time>2026-02-13T19:32:12.000Z</time></trkpt>
        <trkpt lat="29.223472" lon="105.28151"><ele>393.82767</ele><time>2026-02-13T19:32:19.000Z</time></trkpt>
        <trkpt lat="29.22347" lon="105.281564"><ele>394.78632</ele><time>2026-02-13T19:32:24.000Z</time></trkpt>
        <trkpt lat="29.223482" lon="105.281627"><ele>396.4816</ele><time>2026-02-13T19:32:30.000Z</time></trkpt>
        <trkpt lat="29.223532" lon="105.281628"><ele>395.95148</ele><time>2026-02-13T19:32:41.000Z</time></trkpt>
        <trkpt lat="29.223521" lon="105.281662"><ele>395.92422</ele><time>2026-02-13T19:32:46.000Z</time></trkpt>
        <trkpt lat="29.223528" lon="105.281723"><ele>398.0031</ele><time>2026-02-13T19:32:54.000Z</time></trkpt>
        <trkpt lat="29.223539" lon="105.28178"><ele>398.68048</ele><time>2026-02-13T19:33:01.000Z</time></trkpt>
        <trkpt lat="29.223539" lon="105.281843"><ele>399.19952</ele><time>2026-02-13T19:33:10.000Z</time></trkpt>
        <trkpt lat="29.223547" lon="105.281899"><ele>399.76138</ele><time>2026-02-13T19:33:17.000Z</time></trkpt>
        <trkpt lat="29.223579" lon="105.281938"><ele>400.4245</ele><time>2026-02-13T19:33:22.000Z</time></trkpt>
        <trkpt lat="29.22361" lon="105.281978"><ele>400.79013</ele><time>2026-02-13T19:33:26.000Z</time></trkpt>
        <trkpt lat="29.223656" lon="105.282006"><ele>401.3647</ele><time>2026-02-13T19:33:31.000Z</time></trkpt>
        <trkpt lat="29.223693" lon="105.282038"><ele>401.8277</ele><time>2026-02-13T19:33:35.000Z</time></trkpt>
        <trkpt lat="29.223726" lon="105.282087"><ele>402.4123</ele><time>2026-02-13T19:33:42.000Z</time></trkpt>
        <trkpt lat="29.223767" lon="105.282113"><ele>402.2714</ele><time>2026-02-13T19:33:56.000Z</time></trkpt>
        <trkpt lat="29.223789" lon="105.282149"><ele>402.2714</ele><time>2026-02-13T19:34:03.000Z</time></trkpt>
        <trkpt lat="29.22382" lon="105.282185"><ele>402.78815</ele><time>2026-02-13T19:34:08.000Z</time></trkpt>
        <trkpt lat="29.22387" lon="105.282216"><ele>402.16827</ele><time>2026-02-13T19:34:18.000Z</time></trkpt>
        <trkpt lat="29.223901" lon="105.282244"><ele>402.4619</ele><time>2026-02-13T19:34:23.000Z</time></trkpt>
        <trkpt lat="29.223937" lon="105.282288"><ele>402.51672</ele><time>2026-02-13T19:34:29.000Z</time></trkpt>
        <trkpt lat="29.223977" lon="105.282328"><ele>403.562</ele><time>2026-02-13T19:34:34.000Z</time></trkpt>
        <trkpt lat="29.224019" lon="105.282368"><ele>404.43604</ele><time>2026-02-13T19:34:41.000Z</time></trkpt>
        <trkpt lat="29.224052" lon="105.282407"><ele>404.55298</ele><time>2026-02-13T19:34:47.000Z</time></trkpt>
        <trkpt lat="29.224086" lon="105.282454"><ele>406.4095</ele><time>2026-02-13T19:34:54.000Z</time></trkpt>
        <trkpt lat="29.224108" lon="105.282493"><ele>407.57642</ele><time>2026-02-13T19:34:58.000Z</time></trkpt>
        <trkpt lat="29.224146" lon="105.282534"><ele>408.81393</ele><time>2026-02-13T19:35:04.000Z</time></trkpt>
        <trkpt lat="29.224177" lon="105.282572"><ele>410.427</ele><time>2026-02-13T19:35:09.000Z</time></trkpt>
        <trkpt lat="29.224209" lon="105.282622"><ele>411.71442</ele><time>2026-02-13T19:35:15.000Z</time></trkpt>
        <trkpt lat="29.224226" lon="105.282671"><ele>413.1521</ele><time>2026-02-13T19:35:20.000Z</time></trkpt>
        <trkpt lat="29.224254" lon="105.282722"><ele>413.97955</ele><time>2026-02-13T19:35:27.000Z</time></trkpt>
        <trkpt lat="29.224269" lon="105.282781"><ele>412.70477</ele><time>2026-02-13T19:35:35.000Z</time></trkpt>
        <trkpt lat="29.224269" lon="105.282832"><ele>413.72046</ele><time>2026-02-13T19:35:39.000Z</time></trkpt>
        <trkpt lat="29.224261" lon="105.282895"><ele>415.66397</ele><time>2026-02-13T19:35:46.000Z</time></trkpt>
        <trkpt lat="29.224256" lon="105.28295"><ele>416.14926</ele><time>2026-02-13T19:35:52.000Z</time></trkpt>
        <trkpt lat="29.224255" lon="105.283005"><ele>416.50946</ele><time>2026-02-13T19:36:00.000Z</time></trkpt>
        <trkpt lat="29.224253" lon="105.283053"><ele>417.37238</ele><time>2026-02-13T19:36:05.000Z</time></trkpt>
        <trkpt lat="29.224269" lon="105.283103"><ele>418.80396</ele><time>2026-02-13T19:36:11.000Z</time></trkpt>
        <trkpt lat="29.224272" lon="105.283165"><ele>419.94348</ele><time>2026-02-13T19:36:18.000Z</time></trkpt>
        <trkpt lat="29.224275" lon="105.283227"><ele>420.24667</ele><time>2026-02-13T19:36:27.000Z</time></trkpt>
        <trkpt lat="29.224295" lon="105.283277"><ele>422.13757</ele><time>2026-02-13T19:36:37.000Z</time></trkpt>
        <trkpt lat="29.2243" lon="105.28333"><ele>422.26837</ele><time>2026-02-13T19:36:42.000Z</time></trkpt>
        <trkpt lat="29.224304" lon="105.283389"><ele>423.21884</ele><time>2026-02-13T19:36:47.000Z</time></trkpt>
        <trkpt lat="29.224321" lon="105.283447"><ele>423.83524</ele><time>2026-02-13T19:36:53.000Z</time></trkpt>
        <trkpt lat="29.224351" lon="105.283503"><ele>425.24826</ele><time>2026-02-13T19:37:04.000Z</time></trkpt>
        <trkpt lat="29.224343" lon="105.283554"><ele>425.9157</ele><time>2026-02-13T19:37:15.000Z</time></trkpt>
        <trkpt lat="29.224376" lon="105.283583"><ele>427.24915</ele><time>2026-02-13T19:37:29.000Z</time></trkpt>
        <trkpt lat="29.224391" lon="105.283633"><ele>426.7475</ele><time>2026-02-13T19:37:38.000Z</time></trkpt>
        <trkpt lat="29.224431" lon="105.283661"><ele>427.76968</ele><time>2026-02-13T19:37:52.000Z</time></trkpt>
        <trkpt lat="29.22447" lon="105.283676"><ele>427.93005</ele><time>2026-02-13T19:37:58.000Z</time></trkpt>
        <trkpt lat="29.224514" lon="105.283694"><ele>427.67114</ele><time>2026-02-13T19:38:04.000Z</time></trkpt>
        <trkpt lat="29.22456" lon="105.283715"><ele>427.5733</ele><time>2026-02-13T19:38:09.000Z</time></trkpt>
        <trkpt lat="29.224604" lon="105.283738"><ele>427.48795</ele><time>2026-02-13T19:38:14.000Z</time></trkpt>
        <trkpt lat="29.224656" lon="105.283748"><ele>427.2634</ele><time>2026-02-13T19:38:20.000Z</time></trkpt>
        <trkpt lat="29.224684" lon="105.28379"><ele>426.78717</ele><time>2026-02-13T19:38:25.000Z</time></trkpt>
        <trkpt lat="29.224713" lon="105.283852"><ele>427.5908</ele><time>2026-02-13T19:38:41.000Z</time></trkpt>
        <trkpt lat="29.224719" lon="105.283899"><ele>428.29813</ele><time>2026-02-13T19:38:47.000Z</time></trkpt>
        <trkpt lat="29.224731" lon="105.283959"><ele>428.907</ele><time>2026-02-13T19:38:54.000Z</time></trkpt>
        <trkpt lat="29.224738" lon="105.284013"><ele>429.65033</ele><time>2026-02-13T19:39:00.000Z</time></trkpt>
        <trkpt lat="29.224745" lon="105.284077"><ele>429.791</ele><time>2026-02-13T19:39:15.000Z</time></trkpt>
        <trkpt lat="29.224748" lon="105.284124"><ele>430.6669</ele><time>2026-02-13T19:39:23.000Z</time></trkpt>
        <trkpt lat="29.224745" lon="105.28418"><ele>431.32336</ele><time>2026-02-13T19:39:31.000Z</time></trkpt>
        <trkpt lat="29.22473" lon="105.284237"><ele>433.25378</ele><time>2026-02-13T19:39:40.000Z</time></trkpt>
        <trkpt lat="29.22474" lon="105.284289"><ele>434.6306</ele><time>2026-02-13T19:40:09.000Z</time></trkpt>
        <trkpt lat="29.224726" lon="105.284348"><ele>434.9796</ele><time>2026-02-13T19:40:51.000Z</time></trkpt>
        <trkpt lat="29.224722" lon="105.284394"><ele>435.8608</ele><time>2026-02-13T19:40:56.000Z</time></trkpt>
        <trkpt lat="29.224707" lon="105.284449"><ele>436.8031</ele><time>2026-02-13T19:41:01.000Z</time></trkpt>
        <trkpt lat="29.224696" lon="105.284506"><ele>438.49954</ele><time>2026-02-13T19:41:07.000Z</time></trkpt>
        <trkpt lat="29.224706" lon="105.284564"><ele>440.6702</ele><time>2026-02-13T19:41:17.000Z</time></trkpt>
        <trkpt lat="29.224735" lon="105.284605"><ele>441.9454</ele><time>2026-02-13T19:42:05.000Z</time></trkpt>
        <trkpt lat="29.224697" lon="105.284638"><ele>442.0468</ele><time>2026-02-13T19:42:15.000Z</time></trkpt>
        <trkpt lat="29.224689" lon="105.284691"><ele>443.07913</ele><time>2026-02-13T19:42:21.000Z</time></trkpt>
        <trkpt lat="29.224669" lon="105.284744"><ele>443.7197</ele><time>2026-02-13T19:42:30.000Z</time></trkpt>
        <trkpt lat="29.224674" lon="105.284801"><ele>444.97546</ele><time>2026-02-13T19:42:39.000Z</time></trkpt>
        <trkpt lat="29.224654" lon="105.284846"><ele>445.31726</ele><time>2026-02-13T19:42:48.000Z</time></trkpt>
        <trkpt lat="29.224637" lon="105.284908"><ele>446.94482</ele><time>2026-02-13T19:42:54.000Z</time></trkpt>
        <trkpt lat="29.224634" lon="105.284975"><ele>447.1793</ele><time>2026-02-13T19:43:03.000Z</time></trkpt>
        <trkpt lat="29.224617" lon="105.285023"><ele>446.72058</ele><time>2026-02-13T19:43:12.000Z</time></trkpt>
        <trkpt lat="29.224594" lon="105.285068"><ele>446.7359</ele><time>2026-02-13T19:43:21.000Z</time></trkpt>
        <trkpt lat="29.224574" lon="105.285117"><ele>447.09222</ele><time>2026-02-13T19:43:32.000Z</time></trkpt>
        <trkpt lat="29.224587" lon="105.285156"><ele>448.171</ele><time>2026-02-13T19:43:36.000Z</time></trkpt>
        <trkpt lat="29.224589" lon="105.285214"><ele>448.74103</ele><time>2026-02-13T19:43:42.000Z</time></trkpt>
        <trkpt lat="29.224578" lon="105.285273"><ele>448.32523</ele><time>2026-02-13T19:43:48.000Z</time></trkpt>
        <trkpt lat="29.224547" lon="105.285317"><ele>447.46103</ele><time>2026-02-13T19:43:54.000Z</time></trkpt>
        <trkpt lat="29.224513" lon="105.285358"><ele>447.13495</ele><time>2026-02-13T19:44:00.000Z</time></trkpt>
        <trkpt lat="29.224496" lon="105.285406"><ele>446.86362</ele><time>2026-02-13T19:44:05.000Z</time></trkpt>
        <trkpt lat="29.224482" lon="105.285457"><ele>446.6624</ele><time>2026-02-13T19:44:10.000Z</time></trkpt>
        <trkpt lat="29.224451" lon="105.285509"><ele>446.218</ele><time>2026-02-13T19:44:19.000Z</time></trkpt>
        <trkpt lat="29.224431" lon="105.285549"><ele>446.20395</ele><time>2026-02-13T19:44:26.000Z</time></trkpt>
        <trkpt lat="29.224424" lon="105.285604"><ele>445.89346</ele><time>2026-02-13T19:44:32.000Z</time></trkpt>
        <trkpt lat="29.224419" lon="105.285658"><ele>445.50427</ele><time>2026-02-13T19:44:37.000Z</time></trkpt>
        <trkpt lat="29.224393" lon="105.285709"><ele>444.89755</ele><time>2026-02-13T19:44:43.000Z</time></trkpt>
        <trkpt lat="29.224372" lon="105.285758"><ele>444.80115</ele><time>2026-02-13T19:44:48.000Z</time></trkpt>
        <trkpt lat="29.224344" lon="105.285802"><ele>444.6755</ele><time>2026-02-13T19:44:53.000Z</time></trkpt>
        <trkpt lat="29.22437" lon="105.285762"><ele>444.70392</ele><time>2026-02-13T19:45:21.000Z</time></trkpt>
        <trkpt lat="29.224384" lon="105.28571"><ele>445.16086</ele><time>2026-02-13T19:45:26.000Z</time></trkpt>
        <trkpt lat="29.224393" lon="105.28566"><ele>445.33887</ele><time>2026-02-13T19:45:31.000Z</time></trkpt>
        <trkpt lat="29.22442" lon="105.285621"><ele>445.69482</ele><time>2026-02-13T19:45:35.000Z</time></trkpt>
        <trkpt lat="29.224426" lon="105.285563"><ele>445.39014</ele><time>2026-02-13T19:45:43.000Z</time></trkpt>
        <trkpt lat="29.224448" lon="105.285521"><ele>445.78894</ele><time>2026-02-13T19:45:50.000Z</time></trkpt>
        <trkpt lat="29.224484" lon="105.285476"><ele>446.0744</ele><time>2026-02-13T19:45:58.000Z</time></trkpt>
        <trkpt lat="29.224498" lon="105.285425"><ele>446.4759</ele><time>2026-02-13T19:46:04.000Z</time></trkpt>
        <trkpt lat="29.224501" lon="105.285367"><ele>446.8601</ele><time>2026-02-13T19:46:10.000Z</time></trkpt>
        <trkpt lat="29.224516" lon="105.285308"><ele>447.36652</ele><time>2026-02-13T19:46:16.000Z</time></trkpt>
        <trkpt lat="29.224533" lon="105.285257"><ele>447.8708</ele><time>2026-02-13T19:46:22.000Z</time></trkpt>
        <trkpt lat="29.224552" lon="105.285204"><ele>447.81033</ele><time>2026-02-13T19:46:29.000Z</time></trkpt>
        <trkpt lat="29.224574" lon="105.28515"><ele>447.7131</ele><time>2026-02-13T19:46:35.000Z</time></trkpt>
        <trkpt lat="29.224588" lon="105.285095"><ele>447.4669</ele><time>2026-02-13T19:46:41.000Z</time></trkpt>
        <trkpt lat="29.224595" lon="105.285043"><ele>447.40955</ele><time>2026-02-13T19:46:46.000Z</time></trkpt>
        <trkpt lat="29.224618" lon="105.284986"><ele>446.84778</ele><time>2026-02-13T19:46:53.000Z</time></trkpt>
        <trkpt lat="29.224664" lon="105.284997"><ele>446.86615</ele><time>2026-02-13T19:47:07.000Z</time></trkpt>
        <trkpt lat="29.224696" lon="105.28503"><ele>447.5273</ele><time>2026-02-13T19:47:12.000Z</time></trkpt>
        <trkpt lat="29.224741" lon="105.285054"><ele>447.93225</ele><time>2026-02-13T19:47:18.000Z</time></trkpt>
        <trkpt lat="29.22479" lon="105.285075"><ele>447.92285</ele><time>2026-02-13T19:47:23.000Z</time></trkpt>
        <trkpt lat="29.224831" lon="105.285103"><ele>449.097</ele><time>2026-02-13T19:47:29.000Z</time></trkpt>
        <trkpt lat="29.224865" lon="105.285136"><ele>449.53793</ele><time>2026-02-13T19:47:34.000Z</time></trkpt>
        <trkpt lat="29.224908" lon="105.285161"><ele>450.00797</ele><time>2026-02-13T19:47:40.000Z</time></trkpt>
        <trkpt lat="29.224947" lon="105.285184"><ele>450.5702</ele><time>2026-02-13T19:47:45.000Z</time></trkpt>
        <trkpt lat="29.224995" lon="105.285222"><ele>451.62143</ele><time>2026-02-13T19:47:53.000Z</time></trkpt>
        <trkpt lat="29.225037" lon="105.285248"><ele>452.70026</ele><time>2026-02-13T19:47:58.000Z</time></trkpt>
        <trkpt lat="29.225083" lon="105.285282"><ele>453.00272</ele><time>2026-02-13T19:48:04.000Z</time></trkpt>
        <trkpt lat="29.22513" lon="105.285313"><ele>454.18976</ele><time>2026-02-13T19:48:12.000Z</time></trkpt>
        <trkpt lat="29.225173" lon="105.285324"><ele>454.10242</ele><time>2026-02-13T19:48:18.000Z</time></trkpt>
        <trkpt lat="29.225212" lon="105.285355"><ele>454.36694</ele><time>2026-02-13T19:48:24.000Z</time></trkpt>
        <trkpt lat="29.225254" lon="105.285389"><ele>454.37164</ele><time>2026-02-13T19:48:30.000Z</time></trkpt>
        <trkpt lat="29.225295" lon="105.285418"><ele>454.84128</ele><time>2026-02-13T19:48:36.000Z</time></trkpt>
        <trkpt lat="29.225337" lon="105.285448"><ele>455.3296</ele><time>2026-02-13T19:48:41.000Z</time></trkpt>
        <trkpt lat="29.225379" lon="105.28548"><ele>454.49402</ele><time>2026-02-13T19:48:47.000Z</time></trkpt>
        <trkpt lat="29.225419" lon="105.285519"><ele>455.466</ele><time>2026-02-13T19:48:57.000Z</time></trkpt>
        <trkpt lat="29.225454" lon="105.285543"><ele>455.59958</ele><time>2026-02-13T19:49:02.000Z</time></trkpt>
        <trkpt lat="29.225497" lon="105.285581"><ele>455.7984</ele><time>2026-02-13T19:49:24.000Z</time></trkpt>
        <trkpt lat="29.22552" lon="105.285613"><ele>455.97025</ele><time>2026-02-13T19:49:30.000Z</time></trkpt>
        <trkpt lat="29.22556" lon="105.285659"><ele>456.91916</ele><time>2026-02-13T19:49:37.000Z</time></trkpt>
        <trkpt lat="29.225602" lon="105.285686"><ele>457.2087</ele><time>2026-02-13T19:49:42.000Z</time></trkpt>
        <trkpt lat="29.225645" lon="105.28571"><ele>457.1692</ele><time>2026-02-13T19:49:47.000Z</time></trkpt>
        <trkpt lat="29.225683" lon="105.285743"><ele>457.2529</ele><time>2026-02-13T19:49:52.000Z</time></trkpt>
        <trkpt lat="29.225725" lon="105.285769"><ele>457.2379</ele><time>2026-02-13T19:49:57.000Z</time></trkpt>
        <trkpt lat="29.225757" lon="105.285805"><ele>457.424</ele><time>2026-02-13T19:50:02.000Z</time></trkpt>
        <trkpt lat="29.225796" lon="105.285844"><ele>457.85657</ele><time>2026-02-13T19:50:08.000Z</time></trkpt>
        <trkpt lat="29.22584" lon="105.285869"><ele>458.2168</ele><time>2026-02-13T19:50:13.000Z</time></trkpt>
        <trkpt lat="29.225888" lon="105.285856"><ele>457.54935</ele><time>2026-02-13T19:50:19.000Z</time></trkpt>
        <trkpt lat="29.225919" lon="105.285897"><ele>457.241</ele><time>2026-02-13T19:50:51.000Z</time></trkpt>
        <trkpt lat="29.225948" lon="105.285914"><ele>457.70474</ele><time>2026-02-13T19:50:55.000Z</time></trkpt>
        <trkpt lat="29.225998" lon="105.285927"><ele>457.52243</ele><time>2026-02-13T19:50:59.000Z</time></trkpt>
        <trkpt lat="29.226052" lon="105.285974"><ele>457.40598</ele><time>2026-02-13T19:51:09.000Z</time></trkpt>
        <trkpt lat="29.226096" lon="105.285966"><ele>457.9411</ele><time>2026-02-13T19:51:18.000Z</time></trkpt>
        <trkpt lat="29.226145" lon="105.285987"><ele>456.75073</ele><time>2026-02-13T19:51:46.000Z</time></trkpt>
        <trkpt lat="29.22618" lon="105.286011"><ele>456.22476</ele><time>2026-02-13T19:51:52.000Z</time></trkpt>
        <trkpt lat="29.226226" lon="105.286049"><ele>456.5913</ele><time>2026-02-13T19:51:59.000Z</time></trkpt>
        <trkpt lat="29.226275" lon="105.286067"><ele>456.7916</ele><time>2026-02-13T19:52:07.000Z</time></trkpt>
        <trkpt lat="29.22632" lon="105.286082"><ele>456.90103</ele><time>2026-02-13T19:52:13.000Z</time></trkpt>
        <trkpt lat="29.226368" lon="105.286103"><ele>457.0922</ele><time>2026-02-13T19:52:25.000Z</time></trkpt>
        <trkpt lat="29.226403" lon="105.286133"><ele>456.86334</ele><time>2026-02-13T19:52:33.000Z</time></trkpt>
        <trkpt lat="29.226453" lon="105.28617"><ele>456.5117</ele><time>2026-02-13T19:52:41.000Z</time></trkpt>
        <trkpt lat="29.226489" lon="105.286213"><ele>455.8909</ele><time>2026-02-13T19:52:52.000Z</time></trkpt>
        <trkpt lat="29.226527" lon="105.28623"><ele>455.57562</ele><time>2026-02-13T19:52:57.000Z</time></trkpt>
        <trkpt lat="29.226574" lon="105.286248"><ele>455.76532</ele><time>2026-02-13T19:53:02.000Z</time></trkpt>
        <trkpt lat="29.226625" lon="105.286266"><ele>455.55</ele><time>2026-02-13T19:53:09.000Z</time></trkpt>
        <trkpt lat="29.226669" lon="105.286279"><ele>455.6215</ele><time>2026-02-13T19:53:15.000Z</time></trkpt>
        <trkpt lat="29.226717" lon="105.286297"><ele>455.2649</ele><time>2026-02-13T19:53:23.000Z</time></trkpt>
        <trkpt lat="29.226765" lon="105.286315"><ele>455.86035</ele><time>2026-02-13T19:53:30.000Z</time></trkpt>
        <trkpt lat="29.226818" lon="105.286318"><ele>456.36642</ele><time>2026-02-13T19:53:36.000Z</time></trkpt>
        <trkpt lat="29.226873" lon="105.286328"><ele>456.48248</ele><time>2026-02-13T19:53:41.000Z</time></trkpt>
        <trkpt lat="29.226881" lon="105.286383"><ele>458.16385</ele><time>2026-02-13T19:55:32.000Z</time></trkpt>
        <trkpt lat="29.226851" lon="105.286414"><ele>457.1922</ele><time>2026-02-13T19:55:37.000Z</time></trkpt>
        <trkpt lat="29.226832" lon="105.286451"><ele>457.1303</ele><time>2026-02-13T19:55:40.000Z</time></trkpt>
        <trkpt lat="29.226837" lon="105.286515"><ele>458.33548</ele><time>2026-02-13T19:55:49.000Z</time></trkpt>
        <trkpt lat="29.226812" lon="105.28656"><ele>460.99487</ele><time>2026-02-13T19:56:09.000Z</time></trkpt>
        <trkpt lat="29.226774" lon="105.286562"><ele>461.14673</ele><time>2026-02-13T19:56:14.000Z</time></trkpt>
        <trkpt lat="29.226726" lon="105.286567"><ele>461.32666</ele><time>2026-02-13T19:56:19.000Z</time></trkpt>
        <trkpt lat="29.226677" lon="105.286553"><ele>460.80695</ele><time>2026-02-13T19:56:25.000Z</time></trkpt>
        <trkpt lat="29.226626" lon="105.286557"><ele>460.0822</ele><time>2026-02-13T19:56:43.000Z</time></trkpt>
        <trkpt lat="29.226656" lon="105.286597"><ele>461.70953</ele><time>2026-02-13T19:57:15.000Z</time></trkpt>
        <trkpt lat="29.226637" lon="105.286673"><ele>462.2298</ele><time>2026-02-13T19:57:17.000Z</time></trkpt>
        <trkpt lat="29.226653" lon="105.286711"><ele>462.67487</ele><time>2026-02-13T19:57:20.000Z</time></trkpt>
        <trkpt lat="29.226713" lon="105.286735"><ele>462.69632</ele><time>2026-02-13T19:57:40.000Z</time></trkpt>
        <trkpt lat="29.226751" lon="105.286735"><ele>462.76947</ele><time>2026-02-13T19:57:44.000Z</time></trkpt>
        <trkpt lat="29.226721" lon="105.286838"><ele>464.83875</ele><time>2026-02-13T19:58:02.000Z</time></trkpt>
        <trkpt lat="29.226689" lon="105.286834"><ele>465.8901</ele><time>2026-02-13T19:58:04.000Z</time></trkpt>
        <trkpt lat="29.226697" lon="105.28684"><ele>465.85342</ele><time>2026-02-13T19:58:08.000Z</time></trkpt>
        <trkpt lat="29.226764" lon="105.286867"><ele>466.16153</ele><time>2026-02-13T19:58:15.000Z</time></trkpt>
        <trkpt lat="29.226762" lon="105.286938"><ele>467.28604</ele><time>2026-02-13T19:58:29.000Z</time></trkpt>
        <trkpt lat="29.226721" lon="105.286946"><ele>467.94794</ele><time>2026-02-13T19:58:35.000Z</time></trkpt>
        <trkpt lat="29.226744" lon="105.286989"><ele>467.65128</ele><time>2026-02-13T19:58:55.000Z</time></trkpt>
        <trkpt lat="29.226743" lon="105.287038"><ele>469.16788</ele><time>2026-02-13T19:59:03.000Z</time></trkpt>
        <trkpt lat="29.226759" lon="105.286985"><ele>469.50034</ele><time>2026-02-13T19:59:04.000Z</time></trkpt>
        <trkpt lat="29.226735" lon="105.286901"><ele>467.2697</ele><time>2026-02-13T19:59:24.000Z</time></trkpt>
        <trkpt lat="29.226857" lon="105.286724"><ele>463.02832</ele><time>2026-02-13T19:59:47.000Z</time></trkpt>
        <trkpt lat="29.226871" lon="105.286658"><ele>463.00314</ele><time>2026-02-13T19:59:59.000Z</time></trkpt>
        <trkpt lat="29.226861" lon="105.286681"><ele>463.0379</ele><time>2026-02-13T20:00:05.000Z</time></trkpt>
        <trkpt lat="29.226798" lon="105.286799"><ele>463.03708</ele><time>2026-02-13T20:00:11.000Z</time></trkpt>
        <trkpt lat="29.226792" lon="105.286782"><ele>463.03094</ele><time>2026-02-13T20:00:17.000Z</time></trkpt>
        <trkpt lat="29.226803" lon="105.286736"><ele>463.0281</ele><time>2026-02-13T20:00:23.000Z</time></trkpt>
        <trkpt lat="29.226802" lon="105.286749"><ele>464.3129</ele><time>2026-02-13T20:00:24.000Z</time></trkpt>
        <trkpt lat="29.226758" lon="105.286755"><ele>465.03268</ele><time>2026-02-13T20:00:25.000Z</time></trkpt>
        <trkpt lat="29.226712" lon="105.286769"><ele>465.55862</ele><time>2026-02-13T20:00:27.000Z</time></trkpt>
        <trkpt lat="29.226664" lon="105.286843"><ele>466.54062</ele><time>2026-02-13T20:00:39.000Z</time></trkpt>
        <trkpt lat="29.22663" lon="105.286903"><ele>466.85175</ele><time>2026-02-13T20:00:44.000Z</time></trkpt>
        <trkpt lat="29.226603" lon="105.286911"><ele>467.8116</ele><time>2026-02-13T20:00:52.000Z</time></trkpt>
        <trkpt lat="29.226563" lon="105.286923"><ele>468.21744</ele><time>2026-02-13T20:01:04.000Z</time></trkpt>
        <trkpt lat="29.226531" lon="105.286911"><ele>468.15082</ele><time>2026-02-13T20:01:06.000Z</time></trkpt>
        <trkpt lat="29.226469" lon="105.286912"><ele>468.252</ele><time>2026-02-13T20:01:07.000Z</time></trkpt>
        <trkpt lat="29.226355" lon="105.286959"><ele>468.94672</ele><time>2026-02-13T20:01:16.000Z</time></trkpt>
        <trkpt lat="29.226297" lon="105.286991"><ele>469.3327</ele><time>2026-02-13T20:01:23.000Z</time></trkpt>
        <trkpt lat="29.226404" lon="105.286991"><ele>469.6123</ele><time>2026-02-13T20:01:27.000Z</time></trkpt>
        <trkpt lat="29.226406" lon="105.286964"><ele>469.68463</ele><time>2026-02-13T20:01:29.000Z</time></trkpt>
        <trkpt lat="29.226414" lon="105.286988"><ele>470.36053</ele><time>2026-02-13T20:01:35.000Z</time></trkpt>
        <trkpt lat="29.226387" lon="105.286968"><ele>469.79877</ele><time>2026-02-13T20:01:37.000Z</time></trkpt>
        <trkpt lat="29.226372" lon="105.286936"><ele>469.65387</ele><time>2026-02-13T20:01:38.000Z</time></trkpt>
        <trkpt lat="29.226393" lon="105.286925"><ele>469.3952</ele><time>2026-02-13T20:01:39.000Z</time></trkpt>
        <trkpt lat="29.226484" lon="105.28686"><ele>468.03</ele><time>2026-02-13T20:02:07.000Z</time></trkpt>
        <trkpt lat="29.226532" lon="105.286868"><ele>467.80154</ele><time>2026-02-13T20:02:09.000Z</time></trkpt>
        <trkpt lat="29.226545" lon="105.286868"><ele>467.76822</ele><time>2026-02-13T20:02:10.000Z</time></trkpt>
        <trkpt lat="29.22657" lon="105.286862"><ele>467.75717</ele><time>2026-02-13T20:02:11.000Z</time></trkpt>
        <trkpt lat="29.22661" lon="105.286855"><ele>467.671</ele><time>2026-02-13T20:02:12.000Z</time></trkpt>
        <trkpt lat="29.226643" lon="105.28687"><ele>467.45612</ele><time>2026-02-13T20:02:14.000Z</time></trkpt>
        <trkpt lat="29.226663" lon="105.286782"><ele>466.633</ele><time>2026-02-13T20:02:37.000Z</time></trkpt>
        <trkpt lat="29.226607" lon="105.286779"><ele>466.42108</ele><time>2026-02-13T20:02:39.000Z</time></trkpt>
        <trkpt lat="29.226584" lon="105.286795"><ele>466.3424</ele><time>2026-02-13T20:02:41.000Z</time></trkpt>
        <trkpt lat="29.226592" lon="105.286838"><ele>466.65314</ele><time>2026-02-13T20:02:45.000Z</time></trkpt>
        <trkpt lat="29.226623" lon="105.286822"><ele>466.81204</ele><time>2026-02-13T20:02:48.000Z</time></trkpt>
        <trkpt lat="29.226627" lon="105.286834"><ele>466.42383</ele><time>2026-02-13T20:02:51.000Z</time></trkpt>
        <trkpt lat="29.226599" lon="105.286861"><ele>466.54987</ele><time>2026-02-13T20:02:54.000Z</time></trkpt>
        <trkpt lat="29.22661" lon="105.286908"><ele>466.98138</ele><time>2026-02-13T20:02:58.000Z</time></trkpt>
        <trkpt lat="29.226638" lon="105.286919"><ele>467.31512</ele><time>2026-02-13T20:02:59.000Z</time></trkpt>
        <trkpt lat="29.226678" lon="105.286918"><ele>467.50888</ele><time>2026-02-13T20:03:01.000Z</time></trkpt>
        <trkpt lat="29.226758" lon="105.286876"><ele>467.58105</ele><time>2026-02-13T20:03:10.000Z</time></trkpt>
        <trkpt lat="29.226812" lon="105.286907"><ele>461.65308</ele><time>2026-02-13T20:03:28.000Z</time></trkpt>
        <trkpt lat="29.226799" lon="105.286887"><ele>461.35724</ele><time>2026-02-13T20:03:29.000Z</time></trkpt>
        <trkpt lat="29.226801" lon="105.286897"><ele>461.17154</ele><time>2026-02-13T20:03:30.000Z</time></trkpt>
        <trkpt lat="29.226802" lon="105.286899"><ele>461.08853</ele><time>2026-02-13T20:03:32.000Z</time></trkpt>
        <trkpt lat="29.22678" lon="105.286871"><ele>464.62137</ele><time>2026-02-13T20:03:37.000Z</time></trkpt>
        <trkpt lat="29.226823" lon="105.286867"><ele>466.61325</ele><time>2026-02-13T20:03:52.000Z</time></trkpt>
        <trkpt lat="29.226879" lon="105.286856"><ele>465.52042</ele><time>2026-02-13T20:03:55.000Z</time></trkpt>
        <trkpt lat="29.226842" lon="105.286889"><ele>465.67453</ele><time>2026-02-13T20:04:00.000Z</time></trkpt>
        <trkpt lat="29.226816" lon="105.286875"><ele>466.03494</ele><time>2026-02-13T20:04:01.000Z</time></trkpt>
        <trkpt lat="29.226842" lon="105.286865"><ele>466.20877</ele><time>2026-02-13T20:04:02.000Z</time></trkpt>
        <trkpt lat="29.226895" lon="105.286895"><ele>466.37747</ele><time>2026-02-13T20:04:17.000Z</time></trkpt>
        <trkpt lat="29.226935" lon="105.286946"><ele>466.78345</ele><time>2026-02-13T20:04:22.000Z</time></trkpt>
        <trkpt lat="29.226967" lon="105.287014"><ele>467.8447</ele><time>2026-02-13T20:04:35.000Z</time></trkpt>
        <trkpt lat="29.22694" lon="105.287018"><ele>467.77335</ele><time>2026-02-13T20:04:37.000Z</time></trkpt>
        <trkpt lat="29.226915" lon="105.287058"><ele>468.35043</ele><time>2026-02-13T20:04:41.000Z</time></trkpt>
        <trkpt lat="29.226939" lon="105.287047"><ele>468.60068</ele><time>2026-02-13T20:04:44.000Z</time></trkpt>
        <trkpt lat="29.227001" lon="105.287024"><ele>468.31467</ele><time>2026-02-13T20:04:47.000Z</time></trkpt>
        <trkpt lat="29.227019" lon="105.286962"><ele>467.31882</ele><time>2026-02-13T20:04:57.000Z</time></trkpt>
        <trkpt lat="29.226981" lon="105.286956"><ele>466.85895</ele><time>2026-02-13T20:05:00.000Z</time></trkpt>
        <trkpt lat="29.226927" lon="105.286957"><ele>467.00412</ele><time>2026-02-13T20:05:04.000Z</time></trkpt>
        <trkpt lat="29.226866" lon="105.286809"><ele>463.03937</ele><time>2026-02-13T20:05:49.000Z</time></trkpt>
        <trkpt lat="29.226849" lon="105.286909"><ele>466.30515</ele><time>2026-02-13T20:05:54.000Z</time></trkpt>
        <trkpt lat="29.226822" lon="105.286883"><ele>468.3162</ele><time>2026-02-13T20:05:58.000Z</time></trkpt>
        <trkpt lat="29.22679" lon="105.286899"><ele>467.4799</ele><time>2026-02-13T20:06:10.000Z</time></trkpt>
        <trkpt lat="29.226752" lon="105.286928"><ele>467.77274</ele><time>2026-02-13T20:06:39.000Z</time></trkpt>
        <trkpt lat="29.226788" lon="105.286898"><ele>468.88977</ele><time>2026-02-13T20:06:51.000Z</time></trkpt>
        <trkpt lat="29.226763" lon="105.286916"><ele>467.7965</ele><time>2026-02-13T20:06:56.000Z</time></trkpt>
        <trkpt lat="29.226787" lon="105.286898"><ele>468.42758</ele><time>2026-02-13T20:07:08.000Z</time></trkpt>
        <trkpt lat="29.226791" lon="105.286895"><ele>468.69382</ele><time>2026-02-13T20:07:10.000Z</time></trkpt>
        <trkpt lat="29.226792" lon="105.286894"><ele>468.9614</ele><time>2026-02-13T20:07:12.000Z</time></trkpt>
        <trkpt lat="29.226791" lon="105.286894"><ele>468.548</ele><time>2026-02-13T20:07:20.000Z</time></trkpt>
        <trkpt lat="29.226789" lon="105.286897"><ele>468.28452</ele><time>2026-02-13T20:07:40.000Z</time></trkpt>
        <trkpt lat="29.22683" lon="105.286923"><ele>467.79416</ele><time>2026-02-13T20:07:42.000Z</time></trkpt>
        <trkpt lat="29.226873" lon="105.286935"><ele>467.75183</ele><time>2026-02-13T20:07:44.000Z</time></trkpt>
        <trkpt lat="29.226913" lon="105.286943"><ele>467.74738</ele><time>2026-02-13T20:07:45.000Z</time></trkpt>
        <trkpt lat="29.226933" lon="105.286953"><ele>467.63358</ele><time>2026-02-13T20:07:50.000Z</time></trkpt>
        <trkpt lat="29.226909" lon="105.286927"><ele>467.35898</ele><time>2026-02-13T20:07:53.000Z</time></trkpt>
        <trkpt lat="29.226871" lon="105.286873"><ele>467.12698</ele><time>2026-02-13T20:07:58.000Z</time></trkpt>
        <trkpt lat="29.226883" lon="105.286831"><ele>466.14728</ele><time>2026-02-13T20:08:10.000Z</time></trkpt>
        <trkpt lat="29.226864" lon="105.286801"><ele>465.75842</ele><time>2026-02-13T20:08:16.000Z</time></trkpt>
        <trkpt lat="29.22674" lon="105.286963"><ele>465.57703</ele><time>2026-02-13T20:08:19.000Z</time></trkpt>
        <trkpt lat="29.226744" lon="105.286983"><ele>465.81128</ele><time>2026-02-13T20:08:20.000Z</time></trkpt>
        <trkpt lat="29.226752" lon="105.287024"><ele>466.5015</ele><time>2026-02-13T20:08:23.000Z</time></trkpt>
        <trkpt lat="29.226764" lon="105.28696"><ele>466.98904</ele><time>2026-02-13T20:08:24.000Z</time></trkpt>
        <trkpt lat="29.226717" lon="105.28685"><ele>466.83246</ele><time>2026-02-13T20:08:34.000Z</time></trkpt>
        <trkpt lat="29.226705" lon="105.286848"><ele>466.60422</ele><time>2026-02-13T20:08:36.000Z</time></trkpt>
        <trkpt lat="29.226699" lon="105.28683"><ele>466.5623</ele><time>2026-02-13T20:08:37.000Z</time></trkpt>
        <trkpt lat="29.226723" lon="105.286787"><ele>465.7778</ele><time>2026-02-13T20:08:43.000Z</time></trkpt>
        <trkpt lat="29.226755" lon="105.286752"><ele>464.8784</ele><time>2026-02-13T20:08:46.000Z</time></trkpt>
        <trkpt lat="29.22678" lon="105.286714"><ele>464.68024</ele><time>2026-02-13T20:08:48.000Z</time></trkpt>
        <trkpt lat="29.226844" lon="105.286684"><ele>462.9218</ele><time>2026-02-13T20:09:07.000Z</time></trkpt>
        <trkpt lat="29.226872" lon="105.286728"><ele>463.79706</ele><time>2026-02-13T20:09:21.000Z</time></trkpt>
        <trkpt lat="29.226918" lon="105.286717"><ele>464.5504</ele><time>2026-02-13T20:09:33.000Z</time></trkpt>
        <trkpt lat="29.226963" lon="105.286725"><ele>463.8396</ele><time>2026-02-13T20:09:39.000Z</time></trkpt>
        <trkpt lat="29.226938" lon="105.286765"><ele>463.29947</ele><time>2026-02-13T20:09:52.000Z</time></trkpt>
        <trkpt lat="29.226887" lon="105.286777"><ele>463.41116</ele><time>2026-02-13T20:09:59.000Z</time></trkpt>
        <trkpt lat="29.226846" lon="105.286754"><ele>463.4708</ele><time>2026-02-13T20:10:05.000Z</time></trkpt>
        <trkpt lat="29.226799" lon="105.286736"><ele>463.59357</ele><time>2026-02-13T20:10:10.000Z</time></trkpt>
        <trkpt lat="29.22675" lon="105.286717"><ele>463.73416</ele><time>2026-02-13T20:10:15.000Z</time></trkpt>
        <trkpt lat="29.226696" lon="105.286701"><ele>463.2259</ele><time>2026-02-13T20:10:21.000Z</time></trkpt>
        <trkpt lat="29.22665" lon="105.2867"><ele>463.55804</ele><time>2026-02-13T20:10:25.000Z</time></trkpt>
        <trkpt lat="29.226596" lon="105.286696"><ele>464.0343</ele><time>2026-02-13T20:10:31.000Z</time></trkpt>
        <trkpt lat="29.226553" lon="105.286721"><ele>464.1938</ele><time>2026-02-13T20:10:37.000Z</time></trkpt>
        <trkpt lat="29.226534" lon="105.286623"><ele>465.60852</ele><time>2026-02-13T20:10:49.000Z</time></trkpt>
        <trkpt lat="29.226523" lon="105.286638"><ele>465.20044</ele><time>2026-02-13T20:10:51.000Z</time></trkpt>
        <trkpt lat="29.226501" lon="105.286661"><ele>465.02356</ele><time>2026-02-13T20:10:52.000Z</time></trkpt>
        <trkpt lat="29.226488" lon="105.286715"><ele>465.23413</ele><time>2026-02-13T20:10:56.000Z</time></trkpt>
        <trkpt lat="29.226519" lon="105.286739"><ele>466.42838</ele><time>2026-02-13T20:10:59.000Z</time></trkpt>
        <trkpt lat="29.226678" lon="105.286695"><ele>463.07632</ele><time>2026-02-13T20:11:30.000Z</time></trkpt>
        <trkpt lat="29.226649" lon="105.286683"><ele>462.74426</ele><time>2026-02-13T20:11:40.000Z</time></trkpt>
        <trkpt lat="29.226588" lon="105.286713"><ele>464.5054</ele><time>2026-02-13T20:11:42.000Z</time></trkpt>
        <trkpt lat="29.226532" lon="105.28673"><ele>465.20135</ele><time>2026-02-13T20:11:42.000Z</time></trkpt>
        <trkpt lat="29.22653" lon="105.286766"><ele>465.70773</ele><time>2026-02-13T20:11:43.000Z</time></trkpt>
        <trkpt lat="29.226521" lon="105.286784"><ele>465.9982</ele><time>2026-02-13T20:11:44.000Z</time></trkpt>
        <trkpt lat="29.22648" lon="105.286814"><ele>467.0282</ele><time>2026-02-13T20:11:46.000Z</time></trkpt>
        <trkpt lat="29.226428" lon="105.286885"><ele>467.23447</ele><time>2026-02-13T20:12:06.000Z</time></trkpt>
        <trkpt lat="29.226463" lon="105.286838"><ele>467.22656</ele><time>2026-02-13T20:12:35.000Z</time></trkpt>
        <trkpt lat="29.22642" lon="105.286861"><ele>468.3633</ele><time>2026-02-13T20:12:55.000Z</time></trkpt>
        <trkpt lat="29.22643" lon="105.286808"><ele>467.90335</ele><time>2026-02-13T20:14:47.000Z</time></trkpt>
        <trkpt lat="29.226425" lon="105.286883"><ele>467.56653</ele><time>2026-02-13T20:15:48.000Z</time></trkpt>
        <trkpt lat="29.226391" lon="105.286859"><ele>467.0915</ele><time>2026-02-13T20:15:54.000Z</time></trkpt>
        <trkpt lat="29.226356" lon="105.286806"><ele>466.49075</ele><time>2026-02-13T20:16:02.000Z</time></trkpt>
        <trkpt lat="29.226366" lon="105.286748"><ele>465.8568</ele><time>2026-02-13T20:16:08.000Z</time></trkpt>
        <trkpt lat="29.226361" lon="105.286696"><ele>465.92352</ele><time>2026-02-13T20:16:13.000Z</time></trkpt>
        <trkpt lat="29.226362" lon="105.286636"><ele>465.48376</ele><time>2026-02-13T20:16:20.000Z</time></trkpt>
        <trkpt lat="29.226357" lon="105.286587"><ele>465.36823</ele><time>2026-02-13T20:16:24.000Z</time></trkpt>
        <trkpt lat="29.226362" lon="105.286533"><ele>465.31335</ele><time>2026-02-13T20:16:28.000Z</time></trkpt>
        <trkpt lat="29.226373" lon="105.286471"><ele>464.64993</ele><time>2026-02-13T20:16:32.000Z</time></trkpt>
        <trkpt lat="29.22643" lon="105.286424"><ele>463.9773</ele><time>2026-02-13T20:16:40.000Z</time></trkpt>
        <trkpt lat="29.22646" lon="105.286381"><ele>461.94067</ele><time>2026-02-13T20:16:51.000Z</time></trkpt>
        <trkpt lat="29.226496" lon="105.286381"><ele>461.07892</ele><time>2026-02-13T20:16:56.000Z</time></trkpt>
        <trkpt lat="29.226538" lon="105.286401"><ele>460.79437</ele><time>2026-02-13T20:17:01.000Z</time></trkpt>
        <trkpt lat="29.226583" lon="105.286382"><ele>460.5017</ele><time>2026-02-13T20:17:08.000Z</time></trkpt>
        <trkpt lat="29.22655" lon="105.28634"><ele>459.6828</ele><time>2026-02-13T20:17:20.000Z</time></trkpt>
        <trkpt lat="29.226501" lon="105.286335"><ele>460.02344</ele><time>2026-02-13T20:17:26.000Z</time></trkpt>
        <trkpt lat="29.226447" lon="105.28634"><ele>460.8102</ele><time>2026-02-13T20:17:33.000Z</time></trkpt>
        <trkpt lat="29.226396" lon="105.286362"><ele>462.01974</ele><time>2026-02-13T20:17:40.000Z</time></trkpt>
        <trkpt lat="29.226355" lon="105.286391"><ele>462.7117</ele><time>2026-02-13T20:17:47.000Z</time></trkpt>
        <trkpt lat="29.226324" lon="105.286437"><ele>463.06113</ele><time>2026-02-13T20:17:55.000Z</time></trkpt>
        <trkpt lat="29.226309" lon="105.286491"><ele>463.94934</ele><time>2026-02-13T20:18:04.000Z</time></trkpt>
        <trkpt lat="29.226281" lon="105.286531"><ele>464.5878</ele><time>2026-02-13T20:18:13.000Z</time></trkpt>
        <trkpt lat="29.226252" lon="105.286585"><ele>465.1954</ele><time>2026-02-13T20:18:23.000Z</time></trkpt>
        <trkpt lat="29.226225" lon="105.28663"><ele>465.70795</ele><time>2026-02-13T20:18:33.000Z</time></trkpt>
        <trkpt lat="29.226192" lon="105.286678"><ele>467.28455</ele><time>2026-02-13T20:18:41.000Z</time></trkpt>
        <trkpt lat="29.226165" lon="105.286724"><ele>467.8614</ele><time>2026-02-13T20:18:48.000Z</time></trkpt>
        <trkpt lat="29.226144" lon="105.286767"><ele>467.7602</ele><time>2026-02-13T20:18:53.000Z</time></trkpt>
        <trkpt lat="29.226113" lon="105.28682"><ele>469.389</ele><time>2026-02-13T20:19:01.000Z</time></trkpt>
        <trkpt lat="29.226088" lon="105.286864"><ele>470.9604</ele><time>2026-02-13T20:19:09.000Z</time></trkpt>
        <trkpt lat="29.226066" lon="105.286914"><ele>471.79184</ele><time>2026-02-13T20:19:19.000Z</time></trkpt>
        <trkpt lat="29.226054" lon="105.28696"><ele>472.29968</ele><time>2026-02-13T20:19:25.000Z</time></trkpt>
        <trkpt lat="29.226058" lon="105.287017"><ele>472.87418</ele><time>2026-02-13T20:19:37.000Z</time></trkpt>
        <trkpt lat="29.226035" lon="105.287057"><ele>472.88562</ele><time>2026-02-13T20:19:43.000Z</time></trkpt>
        <trkpt lat="29.226031" lon="105.287113"><ele>471.6663</ele><time>2026-02-13T20:19:53.000Z</time></trkpt>
        <trkpt lat="29.226023" lon="105.287172"><ele>472.00232</ele><time>2026-02-13T20:20:01.000Z</time></trkpt>
        <trkpt lat="29.226061" lon="105.287171"><ele>472.0159</ele><time>2026-02-13T20:20:10.000Z</time></trkpt>
        <trkpt lat="29.226089" lon="105.287133"><ele>472.6148</ele><time>2026-02-13T20:20:15.000Z</time></trkpt>
        <trkpt lat="29.226139" lon="105.2871"><ele>473.63785</ele><time>2026-02-13T20:20:20.000Z</time></trkpt>
        <trkpt lat="29.22619" lon="105.287068"><ele>472.80032</ele><time>2026-02-13T20:20:26.000Z</time></trkpt>
        <trkpt lat="29.226237" lon="105.287059"><ele>472.47577</ele><time>2026-02-13T20:20:32.000Z</time></trkpt>
        <trkpt lat="29.226273" lon="105.287088"><ele>471.9935</ele><time>2026-02-13T20:20:38.000Z</time></trkpt>
        <trkpt lat="29.226307" lon="105.287129"><ele>471.81415</ele><time>2026-02-13T20:20:45.000Z</time></trkpt>
        <trkpt lat="29.226355" lon="105.287151"><ele>472.53217</ele><time>2026-02-13T20:20:50.000Z</time></trkpt>
        <trkpt lat="29.226404" lon="105.287179"><ele>472.38602</ele><time>2026-02-13T20:20:56.000Z</time></trkpt>
        <trkpt lat="29.22645" lon="105.287202"><ele>471.84387</ele><time>2026-02-13T20:21:03.000Z</time></trkpt>
        <trkpt lat="29.226503" lon="105.287223"><ele>471.52133</ele><time>2026-02-13T20:21:10.000Z</time></trkpt>
        <trkpt lat="29.226544" lon="105.287252"><ele>471.33484</ele><time>2026-02-13T20:21:16.000Z</time></trkpt>
        <trkpt lat="29.226585" lon="105.287288"><ele>471.54367</ele><time>2026-02-13T20:21:22.000Z</time></trkpt>
        <trkpt lat="29.226628" lon="105.287321"><ele>472.1518</ele><time>2026-02-13T20:21:28.000Z</time></trkpt>
        <trkpt lat="29.226667" lon="105.287344"><ele>472.67004</ele><time>2026-02-13T20:21:32.000Z</time></trkpt>
        <trkpt lat="29.226702" lon="105.28739"><ele>472.3344</ele><time>2026-02-13T20:21:39.000Z</time></trkpt>
        <trkpt lat="29.226714" lon="105.287446"><ele>472.8603</ele><time>2026-02-13T20:22:06.000Z</time></trkpt>
        <trkpt lat="29.226722" lon="105.287488"><ele>472.31906</ele><time>2026-02-13T20:22:12.000Z</time></trkpt>
        <trkpt lat="29.226736" lon="105.287553"><ele>472.26117</ele><time>2026-02-13T20:22:24.000Z</time></trkpt>
        <trkpt lat="29.226748" lon="105.287601"><ele>472.42807</ele><time>2026-02-13T20:22:30.000Z</time></trkpt>
        <trkpt lat="29.226754" lon="105.28766"><ele>472.34598</ele><time>2026-02-13T20:22:48.000Z</time></trkpt>
        <trkpt lat="29.226765" lon="105.287707"><ele>471.9759</ele><time>2026-02-13T20:22:56.000Z</time></trkpt>
        <trkpt lat="29.22672" lon="105.287736"><ele>472.8287</ele><time>2026-02-13T20:24:00.000Z</time></trkpt>
        <trkpt lat="29.226674" lon="105.287763"><ele>472.02768</ele><time>2026-02-13T20:24:17.000Z</time></trkpt>
        <trkpt lat="29.226632" lon="105.287794"><ele>472.06683</ele><time>2026-02-13T20:24:26.000Z</time></trkpt>
        <trkpt lat="29.226583" lon="105.287835"><ele>472.36578</ele><time>2026-02-13T20:24:39.000Z</time></trkpt>
        <trkpt lat="29.226552" lon="105.287877"><ele>473.1027</ele><time>2026-02-13T20:24:46.000Z</time></trkpt>
        <trkpt lat="29.226528" lon="105.287921"><ele>473.09177</ele><time>2026-02-13T20:24:51.000Z</time></trkpt>
        <trkpt lat="29.226498" lon="105.287974"><ele>473.41476</ele><time>2026-02-13T20:24:57.000Z</time></trkpt>
        <trkpt lat="29.226466" lon="105.288012"><ele>473.3865</ele><time>2026-02-13T20:25:02.000Z</time></trkpt>
        <trkpt lat="29.226423" lon="105.288032"><ele>473.06122</ele><time>2026-02-13T20:25:07.000Z</time></trkpt>
        <trkpt lat="29.226367" lon="105.288044"><ele>472.0081</ele><time>2026-02-13T20:25:19.000Z</time></trkpt>
        <trkpt lat="29.226328" lon="105.288049"><ele>471.78015</ele><time>2026-02-13T20:25:25.000Z</time></trkpt>
        <trkpt lat="29.226281" lon="105.288028"><ele>471.97134</ele><time>2026-02-13T20:25:34.000Z</time></trkpt>
        <trkpt lat="29.226231" lon="105.288023"><ele>471.85266</ele><time>2026-02-13T20:25:43.000Z</time></trkpt>
        <trkpt lat="29.226184" lon="105.288013"><ele>471.83688</ele><time>2026-02-13T20:25:49.000Z</time></trkpt>
        <trkpt lat="29.226142" lon="105.28799"><ele>471.88385</ele><time>2026-02-13T20:25:54.000Z</time></trkpt>
        <trkpt lat="29.226108" lon="105.287944"><ele>471.60593</ele><time>2026-02-13T20:25:59.000Z</time></trkpt>
        <trkpt lat="29.226098" lon="105.287886"><ele>471.07355</ele><time>2026-02-13T20:26:04.000Z</time></trkpt>
        <trkpt lat="29.226114" lon="105.287833"><ele>471.40094</ele><time>2026-02-13T20:26:08.000Z</time></trkpt>
        <trkpt lat="29.226148" lon="105.287794"><ele>471.66357</ele><time>2026-02-13T20:26:12.000Z</time></trkpt>
        <trkpt lat="29.2262" lon="105.287773"><ele>472.2741</ele><time>2026-02-13T20:26:17.000Z</time></trkpt>
        <trkpt lat="29.226258" lon="105.287794"><ele>472.98743</ele><time>2026-02-13T20:26:29.000Z</time></trkpt>
        <trkpt lat="29.226305" lon="105.287802"><ele>473.63013</ele><time>2026-02-13T20:26:37.000Z</time></trkpt>
        <trkpt lat="29.226352" lon="105.287786"><ele>473.8083</ele><time>2026-02-13T20:26:43.000Z</time></trkpt>
        <trkpt lat="29.22639" lon="105.287753"><ele>473.45105</ele><time>2026-02-13T20:26:48.000Z</time></trkpt>
        <trkpt lat="29.226428" lon="105.287719"><ele>473.52637</ele><time>2026-02-13T20:26:53.000Z</time></trkpt>
        <trkpt lat="29.226476" lon="105.287696"><ele>472.95917</ele><time>2026-02-13T20:27:01.000Z</time></trkpt>
        <trkpt lat="29.226486" lon="105.287645"><ele>472.9919</ele><time>2026-02-13T20:27:28.000Z</time></trkpt>
        <trkpt lat="29.226498" lon="105.287602"><ele>474.03564</ele><time>2026-02-13T20:27:35.000Z</time></trkpt>
        <trkpt lat="29.22652" lon="105.287548"><ele>474.0865</ele><time>2026-02-13T20:27:41.000Z</time></trkpt>
        <trkpt lat="29.226548" lon="105.287502"><ele>473.48474</ele><time>2026-02-13T20:27:46.000Z</time></trkpt>
        <trkpt lat="29.226589" lon="105.287474"><ele>472.7829</ele><time>2026-02-13T20:27:51.000Z</time></trkpt>
        <trkpt lat="29.226635" lon="105.28746"><ele>472.35922</ele><time>2026-02-13T20:27:56.000Z</time></trkpt>
        <trkpt lat="29.226681" lon="105.287434"><ele>472.70694</ele><time>2026-02-13T20:28:01.000Z</time></trkpt>
        <trkpt lat="29.226706" lon="105.28739"><ele>473.02963</ele><time>2026-02-13T20:28:06.000Z</time></trkpt>
        <trkpt lat="29.226721" lon="105.287342"><ele>473.3005</ele><time>2026-02-13T20:28:10.000Z</time></trkpt>
        <trkpt lat="29.226757" lon="105.287328"><ele>472.7711</ele><time>2026-02-13T20:28:15.000Z</time></trkpt>
        <trkpt lat="29.226809" lon="105.28733"><ele>471.68222</ele><time>2026-02-13T20:28:21.000Z</time></trkpt>
        <trkpt lat="29.226861" lon="105.287329"><ele>471.5574</ele><time>2026-02-13T20:28:26.000Z</time></trkpt>
        <trkpt lat="29.226909" lon="105.287324"><ele>471.09302</ele><time>2026-02-13T20:28:31.000Z</time></trkpt>
        <trkpt lat="29.226951" lon="105.287341"><ele>470.77527</ele><time>2026-02-13T20:28:37.000Z</time></trkpt>
        <trkpt lat="29.226984" lon="105.287383"><ele>470.49225</ele><time>2026-02-13T20:28:43.000Z</time></trkpt>
        <trkpt lat="29.227013" lon="105.287417"><ele>470.20038</ele><time>2026-02-13T20:28:47.000Z</time></trkpt>
        <trkpt lat="29.227052" lon="105.287453"><ele>470.39032</ele><time>2026-02-13T20:28:52.000Z</time></trkpt>
        <trkpt lat="29.227098" lon="105.287483"><ele>470.83453</ele><time>2026-02-13T20:28:57.000Z</time></trkpt>
        <trkpt lat="29.227144" lon="105.287515"><ele>472.0385</ele><time>2026-02-13T20:29:02.000Z</time></trkpt>
        <trkpt lat="29.227191" lon="105.287548"><ele>471.8406</ele><time>2026-02-13T20:29:08.000Z</time></trkpt>
        <trkpt lat="29.227237" lon="105.287569"><ele>471.7792</ele><time>2026-02-13T20:29:12.000Z</time></trkpt>
        <trkpt lat="29.227279" lon="105.287585"><ele>471.8728</ele><time>2026-02-13T20:29:16.000Z</time></trkpt>
        <trkpt lat="29.227326" lon="105.287606"><ele>472.4211</ele><time>2026-02-13T20:29:21.000Z</time></trkpt>
        <trkpt lat="29.227378" lon="105.287624"><ele>472.4398</ele><time>2026-02-13T20:29:26.000Z</time></trkpt>
        <trkpt lat="29.227424" lon="105.287654"><ele>471.70114</ele><time>2026-02-13T20:29:49.000Z</time></trkpt>
        <trkpt lat="29.227456" lon="105.287662"><ele>471.87543</ele><time>2026-02-13T20:29:54.000Z</time></trkpt>
        <trkpt lat="29.227512" lon="105.287669"><ele>471.594</ele><time>2026-02-13T20:30:01.000Z</time></trkpt>
        <trkpt lat="29.227567" lon="105.287667"><ele>472.23578</ele><time>2026-02-13T20:30:07.000Z</time></trkpt>
        <trkpt lat="29.227625" lon="105.287669"><ele>471.2251</ele><time>2026-02-13T20:30:20.000Z</time></trkpt>
        <trkpt lat="29.227667" lon="105.287663"><ele>470.76465</ele><time>2026-02-13T20:30:26.000Z</time></trkpt>
        <trkpt lat="29.227721" lon="105.287661"><ele>469.98013</ele><time>2026-02-13T20:30:32.000Z</time></trkpt>
        <trkpt lat="29.227767" lon="105.287652"><ele>469.3558</ele><time>2026-02-13T20:30:37.000Z</time></trkpt>
        <trkpt lat="29.227826" lon="105.28764"><ele>469.9257</ele><time>2026-02-13T20:30:49.000Z</time></trkpt>
        <trkpt lat="29.227871" lon="105.287622"><ele>469.12335</ele><time>2026-02-13T20:31:01.000Z</time></trkpt>
        <trkpt lat="29.227915" lon="105.287598"><ele>467.87112</ele><time>2026-02-13T20:31:11.000Z</time></trkpt>
        <trkpt lat="29.227885" lon="105.287561"><ele>467.58456</ele><time>2026-02-13T20:31:22.000Z</time></trkpt>
        <trkpt lat="29.227845" lon="105.287525"><ele>467.73923</ele><time>2026-02-13T20:31:29.000Z</time></trkpt>
        <trkpt lat="29.227795" lon="105.287506"><ele>467.46426</ele><time>2026-02-13T20:31:36.000Z</time></trkpt>
        <trkpt lat="29.227749" lon="105.287486"><ele>467.0394</ele><time>2026-02-13T20:31:43.000Z</time></trkpt>
        <trkpt lat="29.227703" lon="105.287471"><ele>466.79022</ele><time>2026-02-13T20:31:49.000Z</time></trkpt>
        <trkpt lat="29.227647" lon="105.287459"><ele>466.87076</ele><time>2026-02-13T20:31:57.000Z</time></trkpt>
        <trkpt lat="29.227601" lon="105.287455"><ele>467.0475</ele><time>2026-02-13T20:32:03.000Z</time></trkpt>
        <trkpt lat="29.22756" lon="105.287435"><ele>466.35553</ele><time>2026-02-13T20:32:09.000Z</time></trkpt>
        <trkpt lat="29.227524" lon="105.287447"><ele>466.87228</ele><time>2026-02-13T20:32:13.000Z</time></trkpt>
        <trkpt lat="29.227471" lon="105.287457"><ele>466.97208</ele><time>2026-02-13T20:32:19.000Z</time></trkpt>
        <trkpt lat="29.227422" lon="105.287468"><ele>467.47232</ele><time>2026-02-13T20:32:25.000Z</time></trkpt>
        <trkpt lat="29.227389" lon="105.2875"><ele>469.10678</ele><time>2026-02-13T20:32:30.000Z</time></trkpt>
        <trkpt lat="29.227383" lon="105.287457"><ele>468.99823</ele><time>2026-02-13T20:33:10.000Z</time></trkpt>
        <trkpt lat="29.227386" lon="105.287397"><ele>467.90814</ele><time>2026-02-13T20:33:20.000Z</time></trkpt>
        <trkpt lat="29.227378" lon="105.287338"><ele>467.64008</ele><time>2026-02-13T20:33:39.000Z</time></trkpt>
        <trkpt lat="29.227371" lon="105.28729"><ele>467.75558</ele><time>2026-02-13T20:33:44.000Z</time></trkpt>
        <trkpt lat="29.227371" lon="105.287223"><ele>466.6941</ele><time>2026-02-13T20:33:51.000Z</time></trkpt>
        <trkpt lat="29.227377" lon="105.287171"><ele>466.27368</ele><time>2026-02-13T20:33:56.000Z</time></trkpt>
        <trkpt lat="29.227375" lon="105.287107"><ele>463.8499</ele><time>2026-02-13T20:34:11.000Z</time></trkpt>
        <trkpt lat="29.227379" lon="105.287065"><ele>463.02386</ele><time>2026-02-13T20:34:17.000Z</time></trkpt>
        <trkpt lat="29.227413" lon="105.287015"><ele>461.8755</ele><time>2026-02-13T20:34:34.000Z</time></trkpt>
        <trkpt lat="29.227441" lon="105.286982"><ele>461.05084</ele><time>2026-02-13T20:34:40.000Z</time></trkpt>
        <trkpt lat="29.227443" lon="105.286927"><ele>460.83768</ele><time>2026-02-13T20:34:48.000Z</time></trkpt>
        <trkpt lat="29.227407" lon="105.286906"><ele>461.0852</ele><time>2026-02-13T20:34:52.000Z</time></trkpt>
        <trkpt lat="29.227395" lon="105.286857"><ele>461.1112</ele><time>2026-02-13T20:35:01.000Z</time></trkpt>
        <trkpt lat="29.227367" lon="105.28681"><ele>461.29395</ele><time>2026-02-13T20:35:06.000Z</time></trkpt>
        <trkpt lat="29.227344" lon="105.286757"><ele>460.25458</ele><time>2026-02-13T20:35:13.000Z</time></trkpt>
        <trkpt lat="29.227314" lon="105.286721"><ele>460.0904</ele><time>2026-02-13T20:35:18.000Z</time></trkpt>
        <trkpt lat="29.227279" lon="105.286687"><ele>460.77786</ele><time>2026-02-13T20:35:23.000Z</time></trkpt>
        <trkpt lat="29.227257" lon="105.28663"><ele>461.8491</ele><time>2026-02-13T20:35:36.000Z</time></trkpt>
        <trkpt lat="29.227286" lon="105.286592"><ele>460.96747</ele><time>2026-02-13T20:35:42.000Z</time></trkpt>
        <trkpt lat="29.227324" lon="105.286545"><ele>460.47794</ele><time>2026-02-13T20:35:51.000Z</time></trkpt>
        <trkpt lat="29.227368" lon="105.286569"><ele>458.69666</ele><time>2026-02-13T20:36:03.000Z</time></trkpt>
        <trkpt lat="29.227419" lon="105.286587"><ele>457.5072</ele><time>2026-02-13T20:36:40.000Z</time></trkpt>
        <trkpt lat="29.22746" lon="105.286595"><ele>457.2487</ele><time>2026-02-13T20:36:46.000Z</time></trkpt>
        <trkpt lat="29.227501" lon="105.28664"><ele>456.77365</ele><time>2026-02-13T20:36:54.000Z</time></trkpt>
        <trkpt lat="29.22755" lon="105.286658"><ele>457.12454</ele><time>2026-02-13T20:37:13.000Z</time></trkpt>
        <trkpt lat="29.22759" lon="105.286667"><ele>456.93176</ele><time>2026-02-13T20:37:20.000Z</time></trkpt>
        <trkpt lat="29.227638" lon="105.286687"><ele>456.56744</ele><time>2026-02-13T20:37:26.000Z</time></trkpt>
        <trkpt lat="29.227685" lon="105.286711"><ele>457.18027</ele><time>2026-02-13T20:37:32.000Z</time></trkpt>
        <trkpt lat="29.227742" lon="105.28674"><ele>457.0828</ele><time>2026-02-13T20:37:40.000Z</time></trkpt>
        <trkpt lat="29.227786" lon="105.286756"><ele>457.0166</ele><time>2026-02-13T20:37:46.000Z</time></trkpt>
        <trkpt lat="29.227828" lon="105.286776"><ele>456.86884</ele><time>2026-02-13T20:37:52.000Z</time></trkpt>
        <trkpt lat="29.227871" lon="105.286802"><ele>458.45697</ele><time>2026-02-13T20:38:00.000Z</time></trkpt>
        <trkpt lat="29.227909" lon="105.286827"><ele>457.7404</ele><time>2026-02-13T20:38:07.000Z</time></trkpt>
        <trkpt lat="29.227957" lon="105.286843"><ele>457.90787</ele><time>2026-02-13T20:38:13.000Z</time></trkpt>
        <trkpt lat="29.228005" lon="105.286881"><ele>457.23102</ele><time>2026-02-13T20:38:30.000Z</time></trkpt>
        <trkpt lat="29.227956" lon="105.286865"><ele>457.0004</ele><time>2026-02-13T20:38:43.000Z</time></trkpt>
        <trkpt lat="29.227916" lon="105.286844"><ele>457.46698</ele><time>2026-02-13T20:38:49.000Z</time></trkpt>
        <trkpt lat="29.227867" lon="105.286828"><ele>458.29654</ele><time>2026-02-13T20:38:56.000Z</time></trkpt>
        <trkpt lat="29.227819" lon="105.286819"><ele>457.53964</ele><time>2026-02-13T20:39:04.000Z</time></trkpt>
        <trkpt lat="29.227778" lon="105.286798"><ele>457.7741</ele><time>2026-02-13T20:39:10.000Z</time></trkpt>
        <trkpt lat="29.22773" lon="105.286773"><ele>458.24673</ele><time>2026-02-13T20:39:16.000Z</time></trkpt>
        <trkpt lat="29.227687" lon="105.286737"><ele>458.12808</ele><time>2026-02-13T20:39:22.000Z</time></trkpt>
        <trkpt lat="29.227637" lon="105.286716"><ele>457.74863</ele><time>2026-02-13T20:39:28.000Z</time></trkpt>
        <trkpt lat="29.227582" lon="105.286702"><ele>457.88593</ele><time>2026-02-13T20:39:34.000Z</time></trkpt>
        <trkpt lat="29.227539" lon="105.28668"><ele>458.0207</ele><time>2026-02-13T20:39:39.000Z</time></trkpt>
        <trkpt lat="29.22749" lon="105.286659"><ele>457.74326</ele><time>2026-02-13T20:39:45.000Z</time></trkpt>
        <trkpt lat="29.227451" lon="105.286636"><ele>457.52438</ele><time>2026-02-13T20:39:50.000Z</time></trkpt>
        <trkpt lat="29.227405" lon="105.286606"><ele>457.8449</ele><time>2026-02-13T20:39:56.000Z</time></trkpt>
        <trkpt lat="29.227353" lon="105.286586"><ele>458.20312</ele><time>2026-02-13T20:40:02.000Z</time></trkpt>
        <trkpt lat="29.227307" lon="105.286622"><ele>459.20032</ele><time>2026-02-13T20:40:14.000Z</time></trkpt>
        <trkpt lat="29.227287" lon="105.286669"><ele>460.39612</ele><time>2026-02-13T20:40:19.000Z</time></trkpt>
        <trkpt lat="29.22725" lon="105.286698"><ele>461.1893</ele><time>2026-02-13T20:40:23.000Z</time></trkpt>
        <trkpt lat="29.227194" lon="105.286698"><ele>462.82816</ele><time>2026-02-13T20:40:28.000Z</time></trkpt>
        <trkpt lat="29.227138" lon="105.286687"><ele>463.86462</ele><time>2026-02-13T20:40:33.000Z</time></trkpt>
        <trkpt lat="29.227089" lon="105.286662"><ele>464.13797</ele><time>2026-02-13T20:40:38.000Z</time></trkpt>
        <trkpt lat="29.22704" lon="105.28664"><ele>463.99332</ele><time>2026-02-13T20:40:43.000Z</time></trkpt>
        <trkpt lat="29.226996" lon="105.286618"><ele>463.68863</ele><time>2026-02-13T20:40:48.000Z</time></trkpt>
        <trkpt lat="29.226952" lon="105.286587"><ele>463.7582</ele><time>2026-02-13T20:40:53.000Z</time></trkpt>
        <trkpt lat="29.226903" lon="105.286554"><ele>463.4125</ele><time>2026-02-13T20:40:59.000Z</time></trkpt>
        <trkpt lat="29.226884" lon="105.286506"><ele>462.33105</ele><time>2026-02-13T20:41:04.000Z</time></trkpt>
        <trkpt lat="29.226889" lon="105.28645"><ele>461.19583</ele><time>2026-02-13T20:41:10.000Z</time></trkpt>
        <trkpt lat="29.226903" lon="105.28639"><ele>459.3806</ele><time>2026-02-13T20:41:18.000Z</time></trkpt>
        <trkpt lat="29.226921" lon="105.286337"><ele>459.18176</ele><time>2026-02-13T20:41:26.000Z</time></trkpt>
        <trkpt lat="29.22696" lon="105.286293"><ele>456.16208</ele><time>2026-02-13T20:42:12.000Z</time></trkpt>
        <trkpt lat="29.226996" lon="105.286321"><ele>456.57968</ele><time>2026-02-13T20:42:22.000Z</time></trkpt>
        <trkpt lat="29.227053" lon="105.286319"><ele>456.46188</ele><time>2026-02-13T20:42:39.000Z</time></trkpt>
        <trkpt lat="29.227097" lon="105.286312"><ele>456.38892</ele><time>2026-02-13T20:42:46.000Z</time></trkpt>
        <trkpt lat="29.227144" lon="105.286307"><ele>456.20465</ele><time>2026-02-13T20:42:51.000Z</time></trkpt>
        <trkpt lat="29.227201" lon="105.286311"><ele>455.91718</ele><time>2026-02-13T20:42:57.000Z</time></trkpt>
        <trkpt lat="29.227245" lon="105.286316"><ele>455.34332</ele><time>2026-02-13T20:43:01.000Z</time></trkpt>
        <trkpt lat="29.227291" lon="105.286301"><ele>454.99008</ele><time>2026-02-13T20:43:06.000Z</time></trkpt>
        <trkpt lat="29.227341" lon="105.286279"><ele>453.40662</ele><time>2026-02-13T20:43:13.000Z</time></trkpt>
        <trkpt lat="29.227382" lon="105.286282"><ele>452.45245</ele><time>2026-02-13T20:43:17.000Z</time></trkpt>
        <trkpt lat="29.227441" lon="105.286312"><ele>452.29904</ele><time>2026-02-13T20:43:35.000Z</time></trkpt>
        <trkpt lat="29.227475" lon="105.286328"><ele>452.13132</ele><time>2026-02-13T20:43:40.000Z</time></trkpt>
        <trkpt lat="29.227495" lon="105.286276"><ele>449.81534</ele><time>2026-02-13T20:44:04.000Z</time></trkpt>
        <trkpt lat="29.22752" lon="105.286246"><ele>449.7953</ele><time>2026-02-13T20:44:09.000Z</time></trkpt>
        <trkpt lat="29.227559" lon="105.286223"><ele>449.92996</ele><time>2026-02-13T20:44:13.000Z</time></trkpt>
        <trkpt lat="29.227595" lon="105.286174"><ele>448.44357</ele><time>2026-02-13T20:44:18.000Z</time></trkpt>
        <trkpt lat="29.227643" lon="105.286163"><ele>447.19455</ele><time>2026-02-13T20:44:43.000Z</time></trkpt>
        <trkpt lat="29.227685" lon="105.286167"><ele>446.32523</ele><time>2026-02-13T20:44:56.000Z</time></trkpt>
        <trkpt lat="29.227728" lon="105.28619"><ele>446.24155</ele><time>2026-02-13T20:45:01.000Z</time></trkpt>
        <trkpt lat="29.227768" lon="105.286223"><ele>446.67078</ele><time>2026-02-13T20:45:05.000Z</time></trkpt>
        <trkpt lat="29.227812" lon="105.28626"><ele>446.56723</ele><time>2026-02-13T20:45:10.000Z</time></trkpt>
        <trkpt lat="29.227859" lon="105.286303"><ele>446.12244</ele><time>2026-02-13T20:45:18.000Z</time></trkpt>
        <trkpt lat="29.227889" lon="105.286342"><ele>448.29602</ele><time>2026-02-13T20:45:32.000Z</time></trkpt>
        <trkpt lat="29.227938" lon="105.286335"><ele>448.73322</ele><time>2026-02-13T20:45:49.000Z</time></trkpt>
        <trkpt lat="29.227986" lon="105.286352"><ele>449.4502</ele><time>2026-02-13T20:45:56.000Z</time></trkpt>
        <trkpt lat="29.228022" lon="105.286385"><ele>449.97662</ele><time>2026-02-13T20:46:01.000Z</time></trkpt>
        <trkpt lat="29.228058" lon="105.286423"><ele>450.3914</ele><time>2026-02-13T20:46:07.000Z</time></trkpt>
        <trkpt lat="29.2281" lon="105.28645"><ele>450.69745</ele><time>2026-02-13T20:46:13.000Z</time></trkpt>
        <trkpt lat="29.228124" lon="105.286496"><ele>450.06958</ele><time>2026-02-13T20:46:21.000Z</time></trkpt>
        <trkpt lat="29.228152" lon="105.286532"><ele>449.90027</ele><time>2026-02-13T20:46:26.000Z</time></trkpt>
        <trkpt lat="29.228198" lon="105.286572"><ele>450.25076</ele><time>2026-02-13T20:46:32.000Z</time></trkpt>
        <trkpt lat="29.228249" lon="105.286598"><ele>450.71793</ele><time>2026-02-13T20:46:37.000Z</time></trkpt>
        <trkpt lat="29.2283" lon="105.286626"><ele>450.35565</ele><time>2026-02-13T20:46:45.000Z</time></trkpt>
        <trkpt lat="29.228332" lon="105.286661"><ele>449.97223</ele><time>2026-02-13T20:46:51.000Z</time></trkpt>
        <trkpt lat="29.228365" lon="105.286696"><ele>449.2713</ele><time>2026-02-13T20:46:57.000Z</time></trkpt>
        <trkpt lat="29.2284" lon="105.286729"><ele>448.59332</ele><time>2026-02-13T20:47:02.000Z</time></trkpt>
        <trkpt lat="29.228439" lon="105.286762"><ele>447.4834</ele><time>2026-02-13T20:47:07.000Z</time></trkpt>
        <trkpt lat="29.228479" lon="105.286803"><ele>447.14056</ele><time>2026-02-13T20:47:13.000Z</time></trkpt>
        <trkpt lat="29.228513" lon="105.286846"><ele>447.25424</ele><time>2026-02-13T20:47:19.000Z</time></trkpt>
        <trkpt lat="29.228547" lon="105.286886"><ele>446.89468</ele><time>2026-02-13T20:47:24.000Z</time></trkpt>
        <trkpt lat="29.228585" lon="105.286919"><ele>446.2083</ele><time>2026-02-13T20:47:29.000Z</time></trkpt>
        <trkpt lat="29.228623" lon="105.286949"><ele>445.8349</ele><time>2026-02-13T20:47:35.000Z</time></trkpt>
        <trkpt lat="29.22866" lon="105.28698"><ele>445.41144</ele><time>2026-02-13T20:47:40.000Z</time></trkpt>
        <trkpt lat="29.228697" lon="105.287016"><ele>444.65982</ele><time>2026-02-13T20:47:45.000Z</time></trkpt>
        <trkpt lat="29.228731" lon="105.287055"><ele>444.52695</ele><time>2026-02-13T20:47:50.000Z</time></trkpt>
        <trkpt lat="29.228762" lon="105.287096"><ele>444.25522</ele><time>2026-02-13T20:47:55.000Z</time></trkpt>
        <trkpt lat="29.228794" lon="105.287128"><ele>444.6115</ele><time>2026-02-13T20:47:59.000Z</time></trkpt>
        <trkpt lat="29.228826" lon="105.287164"><ele>445.09854</ele><time>2026-02-13T20:48:03.000Z</time></trkpt>
        <trkpt lat="29.228872" lon="105.287206"><ele>445.15012</ele><time>2026-02-13T20:48:09.000Z</time></trkpt>
        <trkpt lat="29.228908" lon="105.287236"><ele>445.59616</ele><time>2026-02-13T20:48:13.000Z</time></trkpt>
        <trkpt lat="29.22895" lon="105.287271"><ele>445.79535</ele><time>2026-02-13T20:48:18.000Z</time></trkpt>
        <trkpt lat="29.228988" lon="105.287296"><ele>446.10202</ele><time>2026-02-13T20:48:22.000Z</time></trkpt>
        <trkpt lat="29.229035" lon="105.287326"><ele>446.45984</ele><time>2026-02-13T20:48:27.000Z</time></trkpt>
        <trkpt lat="29.229078" lon="105.287348"><ele>446.3095</ele><time>2026-02-13T20:48:31.000Z</time></trkpt>
        <trkpt lat="29.229124" lon="105.287367"><ele>446.7473</ele><time>2026-02-13T20:48:35.000Z</time></trkpt>
        <trkpt lat="29.229176" lon="105.287382"><ele>447.23126</ele><time>2026-02-13T20:48:40.000Z</time></trkpt>
        <trkpt lat="29.229224" lon="105.287394"><ele>447.06152</ele><time>2026-02-13T20:48:45.000Z</time></trkpt>
        <trkpt lat="29.229273" lon="105.287423"><ele>446.90906</ele><time>2026-02-13T20:48:51.000Z</time></trkpt>
        <trkpt lat="29.229316" lon="105.287452"><ele>446.34015</ele><time>2026-02-13T20:48:56.000Z</time></trkpt>
        <trkpt lat="29.229355" lon="105.287484"><ele>445.82068</ele><time>2026-02-13T20:49:01.000Z</time></trkpt>
        <trkpt lat="29.229403" lon="105.287525"><ele>445.39282</ele><time>2026-02-13T20:49:08.000Z</time></trkpt>
        <trkpt lat="29.22945" lon="105.287546"><ele>444.01044</ele><time>2026-02-13T20:49:15.000Z</time></trkpt>
        <trkpt lat="29.229487" lon="105.287584"><ele>442.92593</ele><time>2026-02-13T20:49:33.000Z</time></trkpt>
        <trkpt lat="29.229507" lon="105.287627"><ele>442.60382</ele><time>2026-02-13T20:49:42.000Z</time></trkpt>
        <trkpt lat="29.22954" lon="105.287667"><ele>442.2409</ele><time>2026-02-13T20:49:48.000Z</time></trkpt>
        <trkpt lat="29.229577" lon="105.287707"><ele>441.34296</ele><time>2026-02-13T20:49:54.000Z</time></trkpt>
        <trkpt lat="29.229608" lon="105.287748"><ele>441.28036</ele><time>2026-02-13T20:49:58.000Z</time></trkpt>
        <trkpt lat="29.229652" lon="105.287786"><ele>440.71494</ele><time>2026-02-13T20:50:04.000Z</time></trkpt>
        <trkpt lat="29.22969" lon="105.287819"><ele>440.61664</ele><time>2026-02-13T20:50:09.000Z</time></trkpt>
        <trkpt lat="29.229732" lon="105.287855"><ele>439.67572</ele><time>2026-02-13T20:50:15.000Z</time></trkpt>
        <trkpt lat="29.229767" lon="105.287879"><ele>440.1954</ele><time>2026-02-13T20:50:19.000Z</time></trkpt>
        <trkpt lat="29.229801" lon="105.287912"><ele>441.20474</ele><time>2026-02-13T20:50:23.000Z</time></trkpt>
        <trkpt lat="29.229842" lon="105.287951"><ele>442.0031</ele><time>2026-02-13T20:50:28.000Z</time></trkpt>
        <trkpt lat="29.229882" lon="105.287996"><ele>441.9696</ele><time>2026-02-13T20:50:34.000Z</time></trkpt>
        <trkpt lat="29.229905" lon="105.288041"><ele>442.56516</ele><time>2026-02-13T20:50:38.000Z</time></trkpt>
        <trkpt lat="29.229928" lon="105.288094"><ele>442.97714</ele><time>2026-02-13T20:50:43.000Z</time></trkpt>
        <trkpt lat="29.229938" lon="105.288158"><ele>442.54718</ele><time>2026-02-13T20:50:49.000Z</time></trkpt>
        <trkpt lat="29.229937" lon="105.288211"><ele>442.00586</ele><time>2026-02-13T20:50:54.000Z</time></trkpt>
        <trkpt lat="29.229924" lon="105.288258"><ele>441.69287</ele><time>2026-02-13T20:50:58.000Z</time></trkpt>
        <trkpt lat="29.229903" lon="105.288317"><ele>442.5839</ele><time>2026-02-13T20:51:03.000Z</time></trkpt>
        <trkpt lat="29.229885" lon="105.288369"><ele>442.7162</ele><time>2026-02-13T20:51:07.000Z</time></trkpt>
        <trkpt lat="29.229869" lon="105.288424"><ele>443.1341</ele><time>2026-02-13T20:51:12.000Z</time></trkpt>
        <trkpt lat="29.229858" lon="105.288479"><ele>442.9699</ele><time>2026-02-13T20:51:18.000Z</time></trkpt>
        <trkpt lat="29.22985" lon="105.288532"><ele>443.75623</ele><time>2026-02-13T20:51:23.000Z</time></trkpt>
        <trkpt lat="29.229838" lon="105.288592"><ele>444.29608</ele><time>2026-02-13T20:51:29.000Z</time></trkpt>
        <trkpt lat="29.229835" lon="105.288651"><ele>444.8449</ele><time>2026-02-13T20:51:35.000Z</time></trkpt>
        <trkpt lat="29.229836" lon="105.288708"><ele>444.54843</ele><time>2026-02-13T20:51:40.000Z</time></trkpt>
        <trkpt lat="29.229843" lon="105.288767"><ele>444.60593</ele><time>2026-02-13T20:51:47.000Z</time></trkpt>
        <trkpt lat="29.229864" lon="105.28881"><ele>445.09088</ele><time>2026-02-13T20:51:51.000Z</time></trkpt>
        <trkpt lat="29.229905" lon="105.288853"><ele>443.21472</ele><time>2026-02-13T20:51:57.000Z</time></trkpt>
        <trkpt lat="29.229941" lon="105.288884"><ele>443.13925</ele><time>2026-02-13T20:52:01.000Z</time></trkpt>
        <trkpt lat="29.229983" lon="105.28892"><ele>442.14896</ele><time>2026-02-13T20:52:06.000Z</time></trkpt>
        <trkpt lat="29.230027" lon="105.288943"><ele>441.7545</ele><time>2026-02-13T20:52:11.000Z</time></trkpt>
        <trkpt lat="29.230066" lon="105.288964"><ele>441.9353</ele><time>2026-02-13T20:52:15.000Z</time></trkpt>
        <trkpt lat="29.230114" lon="105.288991"><ele>441.62103</ele><time>2026-02-13T20:52:20.000Z</time></trkpt>
        <trkpt lat="29.230156" lon="105.289027"><ele>441.57245</ele><time>2026-02-13T20:52:26.000Z</time></trkpt>
        <trkpt lat="29.23019" lon="105.289067"><ele>441.60757</ele><time>2026-02-13T20:52:31.000Z</time></trkpt>
        <trkpt lat="29.230218" lon="105.289113"><ele>441.65308</ele><time>2026-02-13T20:52:36.000Z</time></trkpt>
        <trkpt lat="29.230246" lon="105.289165"><ele>441.09976</ele><time>2026-02-13T20:52:42.000Z</time></trkpt>
        <trkpt lat="29.230262" lon="105.289215"><ele>440.75247</ele><time>2026-02-13T20:52:47.000Z</time></trkpt>
        <trkpt lat="29.230276" lon="105.289265"><ele>440.16974</ele><time>2026-02-13T20:52:52.000Z</time></trkpt>
        <trkpt lat="29.230279" lon="105.289318"><ele>440.60382</ele><time>2026-02-13T20:52:56.000Z</time></trkpt>
        <trkpt lat="29.230273" lon="105.289377"><ele>440.6428</ele><time>2026-02-13T20:53:00.000Z</time></trkpt>
        <trkpt lat="29.230255" lon="105.289437"><ele>440.8255</ele><time>2026-02-13T20:53:08.000Z</time></trkpt>
        <trkpt lat="29.230243" lon="105.289479"><ele>441.3742</ele><time>2026-02-13T20:53:12.000Z</time></trkpt>
        <trkpt lat="29.230231" lon="105.289534"><ele>441.95007</ele><time>2026-02-13T20:53:17.000Z</time></trkpt>
        <trkpt lat="29.230219" lon="105.289584"><ele>442.25317</ele><time>2026-02-13T20:53:21.000Z</time></trkpt>
        <trkpt lat="29.2302" lon="105.289648"><ele>442.14636</ele><time>2026-02-13T20:53:27.000Z</time></trkpt>
        <trkpt lat="29.230178" lon="105.289702"><ele>442.9835</ele><time>2026-02-13T20:53:34.000Z</time></trkpt>
        <trkpt lat="29.230162" lon="105.28975"><ele>443.7939</ele><time>2026-02-13T20:53:39.000Z</time></trkpt>
        <trkpt lat="29.230143" lon="105.289806"><ele>444.293</ele><time>2026-02-13T20:53:45.000Z</time></trkpt>
        <trkpt lat="29.230129" lon="105.289856"><ele>444.76453</ele><time>2026-02-13T20:53:51.000Z</time></trkpt>
        <trkpt lat="29.230127" lon="105.28992"><ele>444.81088</ele><time>2026-02-13T20:53:57.000Z</time></trkpt>
        <trkpt lat="29.230137" lon="105.289979"><ele>443.84918</ele><time>2026-02-13T20:54:12.000Z</time></trkpt>
        <trkpt lat="29.230146" lon="105.290024"><ele>443.11917</ele><time>2026-02-13T20:54:18.000Z</time></trkpt>
        <trkpt lat="29.230157" lon="105.290082"><ele>442.29877</ele><time>2026-02-13T20:54:23.000Z</time></trkpt>
        <trkpt lat="29.230169" lon="105.290138"><ele>441.36664</ele><time>2026-02-13T20:54:28.000Z</time></trkpt>
        <trkpt lat="29.230188" lon="105.290186"><ele>441.1527</ele><time>2026-02-13T20:54:32.000Z</time></trkpt>
        <trkpt lat="29.230189" lon="105.290241"><ele>440.893</ele><time>2026-02-13T20:54:37.000Z</time></trkpt>
        <trkpt lat="29.230195" lon="105.290291"><ele>440.91068</ele><time>2026-02-13T20:54:41.000Z</time></trkpt>
        <trkpt lat="29.230222" lon="105.29034"><ele>439.8884</ele><time>2026-02-13T20:54:46.000Z</time></trkpt>
        <trkpt lat="29.230269" lon="105.29037"><ele>439.37146</ele><time>2026-02-13T20:54:51.000Z</time></trkpt>
        <trkpt lat="29.230317" lon="105.290386"><ele>439.41147</ele><time>2026-02-13T20:54:54.000Z</time></trkpt>
        <trkpt lat="29.230378" lon="105.29039"><ele>440.37778</ele><time>2026-02-13T20:55:15.000Z</time></trkpt>
        <trkpt lat="29.230421" lon="105.290379"><ele>440.45163</ele><time>2026-02-13T20:55:40.000Z</time></trkpt>
        <trkpt lat="29.230472" lon="105.290383"><ele>440.72684</ele><time>2026-02-13T20:55:46.000Z</time></trkpt>
        <trkpt lat="29.230526" lon="105.290378"><ele>440.87134</ele><time>2026-02-13T20:55:52.000Z</time></trkpt>
        <trkpt lat="29.230571" lon="105.290363"><ele>440.87317</ele><time>2026-02-13T20:55:58.000Z</time></trkpt>
        <trkpt lat="29.23062" lon="105.290331"><ele>441.49078</ele><time>2026-02-13T20:56:04.000Z</time></trkpt>
        <trkpt lat="29.23067" lon="105.290308"><ele>441.89813</ele><time>2026-02-13T20:56:10.000Z</time></trkpt>
        <trkpt lat="29.23069" lon="105.290259"><ele>442.43283</ele><time>2026-02-13T20:56:31.000Z</time></trkpt>
        <trkpt lat="29.2307" lon="105.29022"><ele>442.06268</ele><time>2026-02-13T20:56:36.000Z</time></trkpt>
        <trkpt lat="29.230732" lon="105.290184"><ele>441.58017</ele><time>2026-02-13T20:56:40.000Z</time></trkpt>
        <trkpt lat="29.230777" lon="105.290141"><ele>441.73993</ele><time>2026-02-13T20:56:45.000Z</time></trkpt>
        <trkpt lat="29.230814" lon="105.29011"><ele>442.15195</ele><time>2026-02-13T20:56:49.000Z</time></trkpt>
        <trkpt lat="29.230844" lon="105.290062"><ele>442.84955</ele><time>2026-02-13T20:56:55.000Z</time></trkpt>
        <trkpt lat="29.230878" lon="105.290087"><ele>443.66818</ele><time>2026-02-13T20:57:12.000Z</time></trkpt>
        <trkpt lat="29.230831" lon="105.29007"><ele>443.55234</ele><time>2026-02-13T20:57:30.000Z</time></trkpt>
        <trkpt lat="29.230854" lon="105.290022"><ele>446.04666</ele><time>2026-02-13T20:58:19.000Z</time></trkpt>
        <trkpt lat="29.230873" lon="105.289982"><ele>445.7234</ele><time>2026-02-13T20:58:26.000Z</time></trkpt>
        <trkpt lat="29.230889" lon="105.289919"><ele>445.52145</ele><time>2026-02-13T20:58:34.000Z</time></trkpt>
        <trkpt lat="29.230898" lon="105.289868"><ele>445.76428</ele><time>2026-02-13T20:58:39.000Z</time></trkpt>
        <trkpt lat="29.230904" lon="105.289807"><ele>445.91617</ele><time>2026-02-13T20:58:45.000Z</time></trkpt>
        <trkpt lat="29.230913" lon="105.289755"><ele>446.25195</ele><time>2026-02-13T20:58:50.000Z</time></trkpt>
        <trkpt lat="29.230921" lon="105.289701"><ele>446.71173</ele><time>2026-02-13T20:58:54.000Z</time></trkpt>
        <trkpt lat="29.230935" lon="105.289646"><ele>446.89743</ele><time>2026-02-13T20:59:01.000Z</time></trkpt>
        <trkpt lat="29.230949" lon="105.289589"><ele>447.9419</ele><time>2026-02-13T20:59:07.000Z</time></trkpt>
        <trkpt lat="29.230962" lon="105.289533"><ele>448.3354</ele><time>2026-02-13T20:59:12.000Z</time></trkpt>
        <trkpt lat="29.230987" lon="105.289482"><ele>448.61646</ele><time>2026-02-13T20:59:18.000Z</time></trkpt>
        <trkpt lat="29.231003" lon="105.289431"><ele>448.58643</ele><time>2026-02-13T20:59:23.000Z</time></trkpt>
        <trkpt lat="29.231021" lon="105.289381"><ele>447.93646</ele><time>2026-02-13T20:59:29.000Z</time></trkpt>
        <trkpt lat="29.231037" lon="105.289332"><ele>447.62537</ele><time>2026-02-13T20:59:34.000Z</time></trkpt>
        <trkpt lat="29.231056" lon="105.28928"><ele>447.92926</ele><time>2026-02-13T20:59:39.000Z</time></trkpt>
        <trkpt lat="29.231078" lon="105.289226"><ele>448.2905</ele><time>2026-02-13T20:59:45.000Z</time></trkpt>
        <trkpt lat="29.231104" lon="105.289177"><ele>447.90753</ele><time>2026-02-13T20:59:51.000Z</time></trkpt>
        <trkpt lat="29.231128" lon="105.289128"><ele>447.81042</ele><time>2026-02-13T20:59:56.000Z</time></trkpt>
        <trkpt lat="29.231156" lon="105.289077"><ele>447.39395</ele><time>2026-02-13T21:00:01.000Z</time></trkpt>
        <trkpt lat="29.23119" lon="105.289034"><ele>446.0795</ele><time>2026-02-13T21:00:09.000Z</time></trkpt>
        <trkpt lat="29.23122" lon="105.288999"><ele>445.53275</ele><time>2026-02-13T21:00:13.000Z</time></trkpt>
        <trkpt lat="29.231251" lon="105.288947"><ele>444.4845</ele><time>2026-02-13T21:00:18.000Z</time></trkpt>
        <trkpt lat="29.231278" lon="105.288896"><ele>443.67392</ele><time>2026-02-13T21:00:23.000Z</time></trkpt>
        <trkpt lat="29.23131" lon="105.288854"><ele>442.7965</ele><time>2026-02-13T21:00:28.000Z</time></trkpt>
        <trkpt lat="29.231347" lon="105.288831"><ele>442.57816</ele><time>2026-02-13T21:00:32.000Z</time></trkpt>
        <trkpt lat="29.231409" lon="105.288817"><ele>442.14636</ele><time>2026-02-13T21:00:39.000Z</time></trkpt>
        <trkpt lat="29.231457" lon="105.288813"><ele>441.7019</ele><time>2026-02-13T21:00:44.000Z</time></trkpt>
        <trkpt lat="29.231501" lon="105.288809"><ele>441.3129</ele><time>2026-02-13T21:00:48.000Z</time></trkpt>
        <trkpt lat="29.23156" lon="105.288796"><ele>440.54333</ele><time>2026-02-13T21:00:53.000Z</time></trkpt>
        <trkpt lat="29.231613" lon="105.288788"><ele>440.0357</ele><time>2026-02-13T21:00:58.000Z</time></trkpt>
        <trkpt lat="29.231657" lon="105.28878"><ele>439.84854</ele><time>2026-02-13T21:01:02.000Z</time></trkpt>
        <trkpt lat="29.231713" lon="105.288771"><ele>439.40332</ele><time>2026-02-13T21:01:07.000Z</time></trkpt>
        <trkpt lat="29.231763" lon="105.288758"><ele>438.88647</ele><time>2026-02-13T21:01:12.000Z</time></trkpt>
        <trkpt lat="29.231806" lon="105.288746"><ele>438.55765</ele><time>2026-02-13T21:01:16.000Z</time></trkpt>
        <trkpt lat="29.231856" lon="105.288731"><ele>438.43582</ele><time>2026-02-13T21:01:21.000Z</time></trkpt>
        <trkpt lat="29.231905" lon="105.288717"><ele>438.11356</ele><time>2026-02-13T21:01:26.000Z</time></trkpt>
        <trkpt lat="29.231949" lon="105.288704"><ele>437.894</ele><time>2026-02-13T21:01:30.000Z</time></trkpt>
        <trkpt lat="29.231999" lon="105.288692"><ele>437.67297</ele><time>2026-02-13T21:01:35.000Z</time></trkpt>
        <trkpt lat="29.232049" lon="105.288677"><ele>437.33994</ele><time>2026-02-13T21:01:40.000Z</time></trkpt>
        <trkpt lat="29.232106" lon="105.288666"><ele>436.8133</ele><time>2026-02-13T21:01:46.000Z</time></trkpt>
        <trkpt lat="29.232148" lon="105.288662"><ele>436.8862</ele><time>2026-02-13T21:01:50.000Z</time></trkpt>
        <trkpt lat="29.232199" lon="105.288644"><ele>436.81128</ele><time>2026-02-13T21:01:55.000Z</time></trkpt>
        <trkpt lat="29.232238" lon="105.288617"><ele>436.55975</ele><time>2026-02-13T21:01:59.000Z</time></trkpt>
        <trkpt lat="29.23228" lon="105.288572"><ele>435.69284</ele><time>2026-02-13T21:02:04.000Z</time></trkpt>
        <trkpt lat="29.23231" lon="105.288517"><ele>435.2632</ele><time>2026-02-13T21:02:09.000Z</time></trkpt>
        <trkpt lat="29.232329" lon="105.288468"><ele>434.7537</ele><time>2026-02-13T21:02:14.000Z</time></trkpt>
        <trkpt lat="29.232338" lon="105.288413"><ele>434.1127</ele><time>2026-02-13T21:02:18.000Z</time></trkpt>
        <trkpt lat="29.232346" lon="105.288349"><ele>433.5027</ele><time>2026-02-13T21:02:23.000Z</time></trkpt>
        <trkpt lat="29.232332" lon="105.288287"><ele>433.31268</ele><time>2026-02-13T21:02:29.000Z</time></trkpt>
        <trkpt lat="29.232315" lon="105.288221"><ele>432.78247</ele><time>2026-02-13T21:02:41.000Z</time></trkpt>
        <trkpt lat="29.232289" lon="105.288185"><ele>432.25183</ele><time>2026-02-13T21:02:49.000Z</time></trkpt>
        <trkpt lat="29.232258" lon="105.288144"><ele>431.8504</ele><time>2026-02-13T21:02:56.000Z</time></trkpt>
        <trkpt lat="29.232217" lon="105.288111"><ele>430.8038</ele><time>2026-02-13T21:03:01.000Z</time></trkpt>
        <trkpt lat="29.23217" lon="105.288081"><ele>429.98627</ele><time>2026-02-13T21:03:06.000Z</time></trkpt>
        <trkpt lat="29.232117" lon="105.28805"><ele>429.8278</ele><time>2026-02-13T21:03:13.000Z</time></trkpt>
        <trkpt lat="29.232079" lon="105.288025"><ele>429.99637</ele><time>2026-02-13T21:03:17.000Z</time></trkpt>
        <trkpt lat="29.232046" lon="105.287984"><ele>429.69504</ele><time>2026-02-13T21:03:22.000Z</time></trkpt>
        <trkpt lat="29.232017" lon="105.287947"><ele>428.82397</ele><time>2026-02-13T21:03:26.000Z</time></trkpt>
        <trkpt lat="29.231987" lon="105.287908"><ele>427.81253</ele><time>2026-02-13T21:03:30.000Z</time></trkpt>
        <trkpt lat="29.231949" lon="105.28786"><ele>426.7593</ele><time>2026-02-13T21:03:35.000Z</time></trkpt>
        <trkpt lat="29.231915" lon="105.287818"><ele>425.5728</ele><time>2026-02-13T21:03:40.000Z</time></trkpt>
        <trkpt lat="29.231895" lon="105.287771"><ele>424.28683</ele><time>2026-02-13T21:03:45.000Z</time></trkpt>
        <trkpt lat="29.231867" lon="105.287721"><ele>423.73544</ele><time>2026-02-13T21:03:51.000Z</time></trkpt>
        <trkpt lat="29.231852" lon="105.287674"><ele>423.35358</ele><time>2026-02-13T21:03:55.000Z</time></trkpt>
        <trkpt lat="29.231833" lon="105.287605"><ele>421.56018</ele><time>2026-02-13T21:04:02.000Z</time></trkpt>
        <trkpt lat="29.231817" lon="105.287547"><ele>420.44482</ele><time>2026-02-13T21:04:08.000Z</time></trkpt>
        <trkpt lat="29.231796" lon="105.287495"><ele>419.8238</ele><time>2026-02-13T21:04:13.000Z</time></trkpt>
        <trkpt lat="29.231769" lon="105.287439"><ele>418.5325</ele><time>2026-02-13T21:04:20.000Z</time></trkpt>
        <trkpt lat="29.23174" lon="105.287393"><ele>417.82394</ele><time>2026-02-13T21:04:25.000Z</time></trkpt>
        <trkpt lat="29.231702" lon="105.287362"><ele>417.27225</ele><time>2026-02-13T21:04:30.000Z</time></trkpt>
        <trkpt lat="29.231671" lon="105.28732"><ele>416.99362</ele><time>2026-02-13T21:04:35.000Z</time></trkpt>
        <trkpt lat="29.231649" lon="105.287261"><ele>416.84003</ele><time>2026-02-13T21:04:40.000Z</time></trkpt>
        <trkpt lat="29.231633" lon="105.287205"><ele>415.64343</ele><time>2026-02-13T21:04:45.000Z</time></trkpt>
        <trkpt lat="29.231618" lon="105.287153"><ele>414.60968</ele><time>2026-02-13T21:04:49.000Z</time></trkpt>
        <trkpt lat="29.231608" lon="105.287089"><ele>413.3548</ele><time>2026-02-13T21:04:54.000Z</time></trkpt>
        <trkpt lat="29.231597" lon="105.287035"><ele>412.65695</ele><time>2026-02-13T21:04:58.000Z</time></trkpt>
        <trkpt lat="29.231588" lon="105.286973"><ele>412.41623</ele><time>2026-02-13T21:05:04.000Z</time></trkpt>
        <trkpt lat="29.231583" lon="105.286913"><ele>412.22586</ele><time>2026-02-13T21:05:19.000Z</time></trkpt>
        <trkpt lat="29.23159" lon="105.286858"><ele>412.49545</ele><time>2026-02-13T21:05:48.000Z</time></trkpt>
        <trkpt lat="29.231587" lon="105.286818"><ele>411.75208</ele><time>2026-02-13T21:05:52.000Z</time></trkpt>
        <trkpt lat="29.231618" lon="105.286767"><ele>411.39044</ele><time>2026-02-13T21:06:19.000Z</time></trkpt>
        <trkpt lat="29.231594" lon="105.286721"><ele>411.07242</ele><time>2026-02-13T21:06:37.000Z</time></trkpt>
        <trkpt lat="29.231594" lon="105.28667"><ele>410.4265</ele><time>2026-02-13T21:06:42.000Z</time></trkpt>
        <trkpt lat="29.231598" lon="105.286609"><ele>410.07587</ele><time>2026-02-13T21:06:47.000Z</time></trkpt>
        <trkpt lat="29.231601" lon="105.286537"><ele>408.97742</ele><time>2026-02-13T21:06:54.000Z</time></trkpt>
        <trkpt lat="29.231601" lon="105.286486"><ele>407.9885</ele><time>2026-02-13T21:06:59.000Z</time></trkpt>
        <trkpt lat="29.231601" lon="105.286423"><ele>406.0641</ele><time>2026-02-13T21:07:05.000Z</time></trkpt>
        <trkpt lat="29.231596" lon="105.286361"><ele>404.69772</ele><time>2026-02-13T21:07:10.000Z</time></trkpt>
        <trkpt lat="29.2316" lon="105.28629"><ele>403.3003</ele><time>2026-02-13T21:07:16.000Z</time></trkpt>
        <trkpt lat="29.231601" lon="105.286231"><ele>402.65652</ele><time>2026-02-13T21:07:22.000Z</time></trkpt>
        <trkpt lat="29.231596" lon="105.286179"><ele>401.35278</ele><time>2026-02-13T21:07:27.000Z</time></trkpt>
        <trkpt lat="29.231591" lon="105.286131"><ele>401.03012</ele><time>2026-02-13T21:07:31.000Z</time></trkpt>
        <trkpt lat="29.231587" lon="105.28607"><ele>399.94135</ele><time>2026-02-13T21:07:36.000Z</time></trkpt>
        <trkpt lat="29.231594" lon="105.286012"><ele>399.55695</ele><time>2026-02-13T21:07:41.000Z</time></trkpt>
        <trkpt lat="29.2316" lon="105.285956"><ele>399.5608</ele><time>2026-02-13T21:07:46.000Z</time></trkpt>
        <trkpt lat="29.231601" lon="105.285902"><ele>399.36768</ele><time>2026-02-13T21:07:51.000Z</time></trkpt>
        <trkpt lat="29.231595" lon="105.285839"><ele>398.50742</ele><time>2026-02-13T21:07:58.000Z</time></trkpt>
        <trkpt lat="29.231617" lon="105.285804"><ele>398.317</ele><time>2026-02-13T21:08:02.000Z</time></trkpt>
        <trkpt lat="29.231642" lon="105.285753"><ele>399.03885</ele><time>2026-02-13T21:08:07.000Z</time></trkpt>
        <trkpt lat="29.231681" lon="105.285704"><ele>399.85632</ele><time>2026-02-13T21:08:13.000Z</time></trkpt>
        <trkpt lat="29.231721" lon="105.285677"><ele>399.95892</ele><time>2026-02-13T21:08:18.000Z</time></trkpt>
        <trkpt lat="29.231765" lon="105.285664"><ele>399.71454</ele><time>2026-02-13T21:08:22.000Z</time></trkpt>
        <trkpt lat="29.231814" lon="105.285669"><ele>398.99863</ele><time>2026-02-13T21:08:26.000Z</time></trkpt>
        <trkpt lat="29.23186" lon="105.285685"><ele>398.16885</ele><time>2026-02-13T21:08:31.000Z</time></trkpt>
        <trkpt lat="29.231905" lon="105.285707"><ele>397.5054</ele><time>2026-02-13T21:08:35.000Z</time></trkpt>
        <trkpt lat="29.231947" lon="105.285733"><ele>396.89526</ele><time>2026-02-13T21:08:39.000Z</time></trkpt>
        <trkpt lat="29.231993" lon="105.285777"><ele>395.86258</ele><time>2026-02-13T21:08:47.000Z</time></trkpt>
        <trkpt lat="29.232026" lon="105.285802"><ele>395.61356</ele><time>2026-02-13T21:08:52.000Z</time></trkpt>
        <trkpt lat="29.232065" lon="105.285834"><ele>395.04697</ele><time>2026-02-13T21:08:57.000Z</time></trkpt>
        <trkpt lat="29.232098" lon="105.285885"><ele>394.58405</ele><time>2026-02-13T21:09:02.000Z</time></trkpt>
        <trkpt lat="29.232134" lon="105.285921"><ele>395.0651</ele><time>2026-02-13T21:09:07.000Z</time></trkpt>
        <trkpt lat="29.232168" lon="105.285963"><ele>395.1675</ele><time>2026-02-13T21:09:16.000Z</time></trkpt>
        <trkpt lat="29.232207" lon="105.285978"><ele>395.23825</ele><time>2026-02-13T21:09:21.000Z</time></trkpt>
        <trkpt lat="29.232252" lon="105.28601"><ele>395.4389</ele><time>2026-02-13T21:09:27.000Z</time></trkpt>
        <trkpt lat="29.232289" lon="105.286048"><ele>394.963</ele><time>2026-02-13T21:09:33.000Z</time></trkpt>
        <trkpt lat="29.232324" lon="105.286078"><ele>393.99863</ele><time>2026-02-13T21:09:37.000Z</time></trkpt>
        <trkpt lat="29.23237" lon="105.286107"><ele>393.07983</ele><time>2026-02-13T21:09:43.000Z</time></trkpt>
        <trkpt lat="29.23242" lon="105.286134"><ele>392.37952</ele><time>2026-02-13T21:09:49.000Z</time></trkpt>
        <trkpt lat="29.23246" lon="105.286169"><ele>391.7737</ele><time>2026-02-13T21:10:03.000Z</time></trkpt>
        <trkpt lat="29.232492" lon="105.286186"><ele>391.38165</ele><time>2026-02-13T21:10:08.000Z</time></trkpt>
        <trkpt lat="29.232542" lon="105.286217"><ele>391.41122</ele><time>2026-02-13T21:10:14.000Z</time></trkpt>
        <trkpt lat="29.232586" lon="105.286241"><ele>391.64203</ele><time>2026-02-13T21:10:19.000Z</time></trkpt>
        <trkpt lat="29.232636" lon="105.286272"><ele>392.23972</ele><time>2026-02-13T21:10:25.000Z</time></trkpt>
        <trkpt lat="29.232682" lon="105.286305"><ele>393.0702</ele><time>2026-02-13T21:10:32.000Z</time></trkpt>
        <trkpt lat="29.232724" lon="105.286331"><ele>393.39276</ele><time>2026-02-13T21:10:39.000Z</time></trkpt>
        <trkpt lat="29.232761" lon="105.286354"><ele>393.8986</ele><time>2026-02-13T21:10:43.000Z</time></trkpt>
        <trkpt lat="29.232804" lon="105.286393"><ele>394.89996</ele><time>2026-02-13T21:10:48.000Z</time></trkpt>
        <trkpt lat="29.232842" lon="105.286435"><ele>394.6645</ele><time>2026-02-13T21:10:53.000Z</time></trkpt>
        <trkpt lat="29.23288" lon="105.286472"><ele>394.7752</ele><time>2026-02-13T21:10:58.000Z</time></trkpt>
        <trkpt lat="29.232917" lon="105.286511"><ele>394.36972</ele><time>2026-02-13T21:11:03.000Z</time></trkpt>
        <trkpt lat="29.232954" lon="105.286551"><ele>393.88177</ele><time>2026-02-13T21:11:08.000Z</time></trkpt>
        <trkpt lat="29.23299" lon="105.286587"><ele>392.76523</ele><time>2026-02-13T21:11:13.000Z</time></trkpt>
        <trkpt lat="29.233032" lon="105.286616"><ele>392.49588</ele><time>2026-02-13T21:11:17.000Z</time></trkpt>
        <trkpt lat="29.23307" lon="105.286662"><ele>392.14215</ele><time>2026-02-13T21:11:22.000Z</time></trkpt>
        <trkpt lat="29.233107" lon="105.286697"><ele>391.78995</ele><time>2026-02-13T21:11:27.000Z</time></trkpt>
        <trkpt lat="29.233155" lon="105.286729"><ele>391.7346</ele><time>2026-02-13T21:11:33.000Z</time></trkpt>
        <trkpt lat="29.233199" lon="105.286752"><ele>390.1407</ele><time>2026-02-13T21:11:38.000Z</time></trkpt>
        <trkpt lat="29.233236" lon="105.286785"><ele>389.31146</ele><time>2026-02-13T21:11:43.000Z</time></trkpt>
        <trkpt lat="29.23327" lon="105.286821"><ele>389.7837</ele><time>2026-02-13T21:11:47.000Z</time></trkpt>
        <trkpt lat="29.233311" lon="105.286854"><ele>389.25803</ele><time>2026-02-13T21:11:52.000Z</time></trkpt>
        <trkpt lat="29.233346" lon="105.286892"><ele>389.44287</ele><time>2026-02-13T21:11:56.000Z</time></trkpt>
        <trkpt lat="29.233393" lon="105.286919"><ele>388.93243</ele><time>2026-02-13T21:12:00.000Z</time></trkpt>
        <trkpt lat="29.233437" lon="105.286932"><ele>388.64664</ele><time>2026-02-13T21:12:04.000Z</time></trkpt>
        <trkpt lat="29.233486" lon="105.286944"><ele>387.52292</ele><time>2026-02-13T21:12:08.000Z</time></trkpt>
        <trkpt lat="29.233529" lon="105.286953"><ele>386.6985</ele><time>2026-02-13T21:12:11.000Z</time></trkpt>
        <trkpt lat="29.233581" lon="105.286955"><ele>385.66504</ele><time>2026-02-13T21:12:15.000Z</time></trkpt>
        <trkpt lat="29.233634" lon="105.286967"><ele>384.28888</ele><time>2026-02-13T21:12:20.000Z</time></trkpt>
        <trkpt lat="29.233676" lon="105.286989"><ele>382.95187</ele><time>2026-02-13T21:12:25.000Z</time></trkpt>
        <trkpt lat="29.233629" lon="105.286999"><ele>384.39438</ele><time>2026-02-13T21:13:04.000Z</time></trkpt>
        <trkpt lat="29.233655" lon="105.287032"><ele>384.75366</ele><time>2026-02-13T21:13:16.000Z</time></trkpt>
        <trkpt lat="29.233708" lon="105.287017"><ele>384.17227</ele><time>2026-02-13T21:13:21.000Z</time></trkpt>
        <trkpt lat="29.233758" lon="105.287031"><ele>383.1929</ele><time>2026-02-13T21:13:28.000Z</time></trkpt>
        <trkpt lat="29.233794" lon="105.28705"><ele>382.55054</ele><time>2026-02-13T21:13:32.000Z</time></trkpt>
        <trkpt lat="29.233846" lon="105.287055"><ele>380.76346</ele><time>2026-02-13T21:13:37.000Z</time></trkpt>
        <trkpt lat="29.233892" lon="105.287037"><ele>380.25696</ele><time>2026-02-13T21:13:41.000Z</time></trkpt>
        <trkpt lat="29.233939" lon="105.287056"><ele>377.285</ele><time>2026-02-13T21:13:56.000Z</time></trkpt>
        <trkpt lat="29.233981" lon="105.287062"><ele>376.61368</ele><time>2026-02-13T21:14:02.000Z</time></trkpt>
        <trkpt lat="29.234028" lon="105.287065"><ele>375.9837</ele><time>2026-02-13T21:14:05.000Z</time></trkpt>
        <trkpt lat="29.23407" lon="105.287074"><ele>375.23337</ele><time>2026-02-13T21:14:08.000Z</time></trkpt>
        <trkpt lat="29.234122" lon="105.287093"><ele>374.41852</ele><time>2026-02-13T21:14:12.000Z</time></trkpt>
        <trkpt lat="29.234167" lon="105.287127"><ele>373.5165</ele><time>2026-02-13T21:14:17.000Z</time></trkpt>
        <trkpt lat="29.234204" lon="105.287152"><ele>373.24512</ele><time>2026-02-13T21:14:21.000Z</time></trkpt>
        <trkpt lat="29.23424" lon="105.287182"><ele>373.02966</ele><time>2026-02-13T21:14:25.000Z</time></trkpt>
        <trkpt lat="29.234278" lon="105.287212"><ele>373.6616</ele><time>2026-02-13T21:14:29.000Z</time></trkpt>
        <trkpt lat="29.234326" lon="105.287234"><ele>372.924</ele><time>2026-02-13T21:14:34.000Z</time></trkpt>
        <trkpt lat="29.234371" lon="105.287236"><ele>372.22583</ele><time>2026-02-13T21:14:38.000Z</time></trkpt>
        <trkpt lat="29.234413" lon="105.287197"><ele>371.72266</ele><time>2026-02-13T21:14:44.000Z</time></trkpt>
        <trkpt lat="29.23439" lon="105.287139"><ele>370.64627</ele><time>2026-02-13T21:14:53.000Z</time></trkpt>
        <trkpt lat="29.234339" lon="105.287095"><ele>370.64093</ele><time>2026-02-13T21:14:59.000Z</time></trkpt>
        <trkpt lat="29.234299" lon="105.287062"><ele>370.35043</ele><time>2026-02-13T21:15:03.000Z</time></trkpt>
        <trkpt lat="29.234254" lon="105.287023"><ele>370.58487</ele><time>2026-02-13T21:15:07.000Z</time></trkpt>
        <trkpt lat="29.234221" lon="105.286978"><ele>369.99103</ele><time>2026-02-13T21:15:11.000Z</time></trkpt>
        <trkpt lat="29.234191" lon="105.286925"><ele>369.55725</ele><time>2026-02-13T21:15:16.000Z</time></trkpt>
        <trkpt lat="29.23416" lon="105.286875"><ele>368.76422</ele><time>2026-02-13T21:15:21.000Z</time></trkpt>
        <trkpt lat="29.23413" lon="105.286829"><ele>367.68015</ele><time>2026-02-13T21:15:26.000Z</time></trkpt>
        <trkpt lat="29.234104" lon="105.286783"><ele>365.97507</ele><time>2026-02-13T21:15:31.000Z</time></trkpt>
        <trkpt lat="29.234074" lon="105.28674"><ele>365.94656</ele><time>2026-02-13T21:15:35.000Z</time></trkpt>
        <trkpt lat="29.234046" lon="105.286694"><ele>365.70758</ele><time>2026-02-13T21:15:39.000Z</time></trkpt>
        <trkpt lat="29.234017" lon="105.286648"><ele>365.45618</ele><time>2026-02-13T21:15:43.000Z</time></trkpt>
        <trkpt lat="29.234007" lon="105.28659"><ele>363.85236</ele><time>2026-02-13T21:15:48.000Z</time></trkpt>
        <trkpt lat="29.234012" lon="105.286538"><ele>362.878</ele><time>2026-02-13T21:15:52.000Z</time></trkpt>
        <trkpt lat="29.234023" lon="105.286484"><ele>362.1544</ele><time>2026-02-13T21:15:56.000Z</time></trkpt>
        <trkpt lat="29.234034" lon="105.286424"><ele>361.078</ele><time>2026-02-13T21:16:01.000Z</time></trkpt>
        <trkpt lat="29.234034" lon="105.286361"><ele>359.74908</ele><time>2026-02-13T21:16:05.000Z</time></trkpt>
        <trkpt lat="29.234029" lon="105.2863"><ele>358.74033</ele><time>2026-02-13T21:16:10.000Z</time></trkpt>
        <trkpt lat="29.23402" lon="105.286238"><ele>357.6782</ele><time>2026-02-13T21:16:16.000Z</time></trkpt>
        <trkpt lat="29.234015" lon="105.28619"><ele>356.96198</ele><time>2026-02-13T21:16:20.000Z</time></trkpt>
        <trkpt lat="29.234006" lon="105.286136"><ele>356.50476</ele><time>2026-02-13T21:16:24.000Z</time></trkpt>
        <trkpt lat="29.233996" lon="105.286082"><ele>356.13257</ele><time>2026-02-13T21:16:28.000Z</time></trkpt>
        <trkpt lat="29.233982" lon="105.286024"><ele>355.70047</ele><time>2026-02-13T21:17:22.000Z</time></trkpt>
        <trkpt lat="29.23398" lon="105.285991"><ele>354.88168</ele><time>2026-02-13T21:17:28.000Z</time></trkpt>
        <trkpt lat="29.233967" lon="105.28592"><ele>353.98907</ele><time>2026-02-13T21:17:34.000Z</time></trkpt>
        <trkpt lat="29.233954" lon="105.285858"><ele>352.80383</ele><time>2026-02-13T21:17:39.000Z</time></trkpt>
        <trkpt lat="29.233942" lon="105.2858"><ele>351.90067</ele><time>2026-02-13T21:17:44.000Z</time></trkpt>
        <trkpt lat="29.233934" lon="105.285742"><ele>351.53088</ele><time>2026-02-13T21:17:50.000Z</time></trkpt>
        <trkpt lat="29.233921" lon="105.285692"><ele>351.22656</ele><time>2026-02-13T21:17:55.000Z</time></trkpt>
        <trkpt lat="29.233908" lon="105.285639"><ele>350.86185</ele><time>2026-02-13T21:17:59.000Z</time></trkpt>
        <trkpt lat="29.233902" lon="105.285578"><ele>349.92432</ele><time>2026-02-13T21:18:07.000Z</time></trkpt>
        <trkpt lat="29.23391" lon="105.285526"><ele>349.4743</ele><time>2026-02-13T21:18:12.000Z</time></trkpt>
        <trkpt lat="29.233922" lon="105.285476"><ele>349.33984</ele><time>2026-02-13T21:18:16.000Z</time></trkpt>
        <trkpt lat="29.233946" lon="105.285415"><ele>348.76425</ele><time>2026-02-13T21:18:21.000Z</time></trkpt>
        <trkpt lat="29.233969" lon="105.285363"><ele>347.92435</ele><time>2026-02-13T21:18:26.000Z</time></trkpt>
        <trkpt lat="29.234001" lon="105.285318"><ele>346.7809</ele><time>2026-02-13T21:18:31.000Z</time></trkpt>
        <trkpt lat="29.234035" lon="105.285273"><ele>345.81094</ele><time>2026-02-13T21:18:36.000Z</time></trkpt>
        <trkpt lat="29.234064" lon="105.285227"><ele>344.98157</ele><time>2026-02-13T21:18:41.000Z</time></trkpt>
        <trkpt lat="29.234093" lon="105.285181"><ele>343.85645</ele><time>2026-02-13T21:18:46.000Z</time></trkpt>
        <trkpt lat="29.234128" lon="105.285135"><ele>341.72122</ele><time>2026-02-13T21:18:52.000Z</time></trkpt>
        <trkpt lat="29.234155" lon="105.285089"><ele>340.41968</ele><time>2026-02-13T21:18:57.000Z</time></trkpt>
        <trkpt lat="29.234173" lon="105.285037"><ele>338.4418</ele><time>2026-02-13T21:19:03.000Z</time></trkpt>
        <trkpt lat="29.234189" lon="105.284978"><ele>337.04858</ele><time>2026-02-13T21:19:08.000Z</time></trkpt>
        <trkpt lat="29.234202" lon="105.284918"><ele>336.13077</ele><time>2026-02-13T21:19:13.000Z</time></trkpt>
        <trkpt lat="29.234205" lon="105.284849"><ele>335.14703</ele><time>2026-02-13T21:19:19.000Z</time></trkpt>
        <trkpt lat="29.234202" lon="105.284793"><ele>334.84738</ele><time>2026-02-13T21:19:24.000Z</time></trkpt>
        <trkpt lat="29.234197" lon="105.284733"><ele>335.128</ele><time>2026-02-13T21:19:29.000Z</time></trkpt>
        <trkpt lat="29.234193" lon="105.284673"><ele>334.9061</ele><time>2026-02-13T21:19:34.000Z</time></trkpt>
        <trkpt lat="29.234195" lon="105.284615"><ele>334.7733</ele><time>2026-02-13T21:19:39.000Z</time></trkpt>
        <trkpt lat="29.23421" lon="105.284552"><ele>334.3467</ele><time>2026-02-13T21:19:49.000Z</time></trkpt>
        <trkpt lat="29.234245" lon="105.284516"><ele>332.95355</ele><time>2026-02-13T21:20:06.000Z</time></trkpt>
        <trkpt lat="29.234246" lon="105.284476"><ele>333.02026</ele><time>2026-02-13T21:20:11.000Z</time></trkpt>
        <trkpt lat="29.234259" lon="105.284422"><ele>332.96457</ele><time>2026-02-13T21:20:16.000Z</time></trkpt>
        <trkpt lat="29.234263" lon="105.284357"><ele>332.76627</ele><time>2026-02-13T21:20:22.000Z</time></trkpt>
        <trkpt lat="29.234274" lon="105.284298"><ele>332.86264</ele><time>2026-02-13T21:20:27.000Z</time></trkpt>
        <trkpt lat="29.234299" lon="105.284245"><ele>332.36746</ele><time>2026-02-13T21:20:32.000Z</time></trkpt>
        <trkpt lat="29.23433" lon="105.284198"><ele>332.064</ele><time>2026-02-13T21:20:37.000Z</time></trkpt>
        <trkpt lat="29.234361" lon="105.284157"><ele>331.0771</ele><time>2026-02-13T21:20:42.000Z</time></trkpt>
        <trkpt lat="29.234354" lon="105.284107"><ele>330.27365</ele><time>2026-02-13T21:20:50.000Z</time></trkpt>
        <trkpt lat="29.234318" lon="105.284061"><ele>330.7391</ele><time>2026-02-13T21:20:57.000Z</time></trkpt>
        <trkpt lat="29.234281" lon="105.284021"><ele>331.9078</ele><time>2026-02-13T21:21:07.000Z</time></trkpt>
        <trkpt lat="29.234251" lon="105.283986"><ele>332.2539</ele><time>2026-02-13T21:21:12.000Z</time></trkpt>
        <trkpt lat="29.234228" lon="105.283933"><ele>332.2645</ele><time>2026-02-13T21:21:17.000Z</time></trkpt>
        <trkpt lat="29.234214" lon="105.283873"><ele>332.36572</ele><time>2026-02-13T21:21:22.000Z</time></trkpt>
        <trkpt lat="29.234196" lon="105.283816"><ele>332.29724</ele><time>2026-02-13T21:21:27.000Z</time></trkpt>
        <trkpt lat="29.234173" lon="105.283762"><ele>331.90112</ele><time>2026-02-13T21:21:32.000Z</time></trkpt>
        <trkpt lat="29.234137" lon="105.283724"><ele>331.73026</ele><time>2026-02-13T21:21:37.000Z</time></trkpt>
        <trkpt lat="29.234088" lon="105.283715"><ele>331.42017</ele><time>2026-02-13T21:21:42.000Z</time></trkpt>
        <trkpt lat="29.234034" lon="105.283731"><ele>331.51306</ele><time>2026-02-13T21:21:48.000Z</time></trkpt>
        <trkpt lat="29.233989" lon="105.283747"><ele>331.44333</ele><time>2026-02-13T21:21:53.000Z</time></trkpt>
        <trkpt lat="29.233939" lon="105.283762"><ele>331.64047</ele><time>2026-02-13T21:21:57.000Z</time></trkpt>
        <trkpt lat="29.233895" lon="105.28376"><ele>331.58682</ele><time>2026-02-13T21:22:01.000Z</time></trkpt>
        <trkpt lat="29.233854" lon="105.283733"><ele>331.29642</ele><time>2026-02-13T21:22:05.000Z</time></trkpt>
        <trkpt lat="29.233817" lon="105.283686"><ele>330.4657</ele><time>2026-02-13T21:22:10.000Z</time></trkpt>
        <trkpt lat="29.233785" lon="105.283627"><ele>330.079</ele><time>2026-02-13T21:22:16.000Z</time></trkpt>
        <trkpt lat="29.233763" lon="105.283582"><ele>330.21466</ele><time>2026-02-13T21:22:20.000Z</time></trkpt>
        <trkpt lat="29.23373" lon="105.283536"><ele>330.72726</ele><time>2026-02-13T21:22:25.000Z</time></trkpt>
        <trkpt lat="29.233694" lon="105.283495"><ele>330.58926</ele><time>2026-02-13T21:22:30.000Z</time></trkpt>
        <trkpt lat="29.233659" lon="105.283457"><ele>330.6183</ele><time>2026-02-13T21:22:35.000Z</time></trkpt>
        <trkpt lat="29.233623" lon="105.283408"><ele>330.60895</ele><time>2026-02-13T21:22:43.000Z</time></trkpt>
        <trkpt lat="29.233587" lon="105.283379"><ele>330.2586</ele><time>2026-02-13T21:22:48.000Z</time></trkpt>
        <trkpt lat="29.23355" lon="105.283343"><ele>330.01196</ele><time>2026-02-13T21:22:53.000Z</time></trkpt>
        <trkpt lat="29.233509" lon="105.283307"><ele>329.7582</ele><time>2026-02-13T21:22:58.000Z</time></trkpt>
        <trkpt lat="29.233467" lon="105.283273"><ele>329.2216</ele><time>2026-02-13T21:23:03.000Z</time></trkpt>
        <trkpt lat="29.233425" lon="105.283236"><ele>328.7355</ele><time>2026-02-13T21:23:08.000Z</time></trkpt>
        <trkpt lat="29.233383" lon="105.283206"><ele>328.37634</ele><time>2026-02-13T21:23:13.000Z</time></trkpt>
        <trkpt lat="29.233343" lon="105.283175"><ele>328.25916</ele><time>2026-02-13T21:23:18.000Z</time></trkpt>
        <trkpt lat="29.233295" lon="105.283144"><ele>328.27524</ele><time>2026-02-13T21:23:26.000Z</time></trkpt>
        <trkpt lat="29.233262" lon="105.283106"><ele>328.38806</ele><time>2026-02-13T21:23:31.000Z</time></trkpt>
        <trkpt lat="29.233229" lon="105.283061"><ele>328.30057</ele><time>2026-02-13T21:23:36.000Z</time></trkpt>
        <trkpt lat="29.233213" lon="105.283013"><ele>328.72943</ele><time>2026-02-13T21:23:40.000Z</time></trkpt>
        <trkpt lat="29.233207" lon="105.282954"><ele>329.7212</ele><time>2026-02-13T21:23:44.000Z</time></trkpt>
        <trkpt lat="29.233214" lon="105.282885"><ele>329.93353</ele><time>2026-02-13T21:23:51.000Z</time></trkpt>
        <trkpt lat="29.233225" lon="105.282828"><ele>330.22784</ele><time>2026-02-13T21:23:57.000Z</time></trkpt>
        <trkpt lat="29.233233" lon="105.282774"><ele>330.95062</ele><time>2026-02-13T21:24:02.000Z</time></trkpt>
        <trkpt lat="29.233237" lon="105.282716"><ele>331.48175</ele><time>2026-02-13T21:24:07.000Z</time></trkpt>
        <trkpt lat="29.233221" lon="105.282654"><ele>332.5208</ele><time>2026-02-13T21:24:14.000Z</time></trkpt>
        <trkpt lat="29.233181" lon="105.282611"><ele>332.57397</ele><time>2026-02-13T21:24:28.000Z</time></trkpt>
        <trkpt lat="29.233148" lon="105.282592"><ele>332.67804</ele><time>2026-02-13T21:24:33.000Z</time></trkpt>
        <trkpt lat="29.233106" lon="105.282564"><ele>332.76004</ele><time>2026-02-13T21:24:38.000Z</time></trkpt>
        <trkpt lat="29.233061" lon="105.282533"><ele>333.04025</ele><time>2026-02-13T21:24:43.000Z</time></trkpt>
        <trkpt lat="29.23302" lon="105.282502"><ele>333.69208</ele><time>2026-02-13T21:24:48.000Z</time></trkpt>
        <trkpt lat="29.232975" lon="105.282484"><ele>333.28806</ele><time>2026-02-13T21:24:53.000Z</time></trkpt>
        <trkpt lat="29.232923" lon="105.282482"><ele>333.00925</ele><time>2026-02-13T21:24:58.000Z</time></trkpt>
        <trkpt lat="29.23287" lon="105.282487"><ele>332.81476</ele><time>2026-02-13T21:25:03.000Z</time></trkpt>
        <trkpt lat="29.232819" lon="105.282488"><ele>332.29675</ele><time>2026-02-13T21:25:08.000Z</time></trkpt>
        <trkpt lat="29.232762" lon="105.282498"><ele>331.57834</ele><time>2026-02-13T21:25:16.000Z</time></trkpt>
        <trkpt lat="29.232723" lon="105.282502"><ele>331.606</ele><time>2026-02-13T21:25:20.000Z</time></trkpt>
        <trkpt lat="29.232669" lon="105.282496"><ele>332.26526</ele><time>2026-02-13T21:25:25.000Z</time></trkpt>
        <trkpt lat="29.232616" lon="105.282478"><ele>333.95352</ele><time>2026-02-13T21:25:31.000Z</time></trkpt>
        <trkpt lat="29.23257" lon="105.28246"><ele>334.96127</ele><time>2026-02-13T21:25:36.000Z</time></trkpt>
        <trkpt lat="29.232517" lon="105.282439"><ele>335.7877</ele><time>2026-02-13T21:25:42.000Z</time></trkpt>
        <trkpt lat="29.232472" lon="105.282415"><ele>335.8655</ele><time>2026-02-13T21:25:48.000Z</time></trkpt>
        <trkpt lat="29.232426" lon="105.282399"><ele>335.81393</ele><time>2026-02-13T21:25:53.000Z</time></trkpt>
        <trkpt lat="29.232377" lon="105.282374"><ele>335.7649</ele><time>2026-02-13T21:25:58.000Z</time></trkpt>
        <trkpt lat="29.232333" lon="105.282357"><ele>335.71643</ele><time>2026-02-13T21:26:02.000Z</time></trkpt>
        <trkpt lat="29.232288" lon="105.282351"><ele>336.13434</ele><time>2026-02-13T21:26:05.000Z</time></trkpt>
        <trkpt lat="29.232236" lon="105.282324"><ele>336.35657</ele><time>2026-02-13T21:26:11.000Z</time></trkpt>
        <trkpt lat="29.232191" lon="105.282325"><ele>335.9508</ele><time>2026-02-13T21:26:17.000Z</time></trkpt>
        <trkpt lat="29.23215" lon="105.282352"><ele>336.64856</ele><time>2026-02-13T21:26:22.000Z</time></trkpt>
        <trkpt lat="29.232099" lon="105.28237"><ele>336.80045</ele><time>2026-02-13T21:26:29.000Z</time></trkpt>
        <trkpt lat="29.232063" lon="105.282331"><ele>336.7137</ele><time>2026-02-13T21:26:53.000Z</time></trkpt>
        <trkpt lat="29.232056" lon="105.28238"><ele>335.57196</ele><time>2026-02-13T21:27:00.000Z</time></trkpt>
        <trkpt lat="29.232017" lon="105.282415"><ele>335.45932</ele><time>2026-02-13T21:27:05.000Z</time></trkpt>
        <trkpt lat="29.231974" lon="105.282436"><ele>335.27533</ele><time>2026-02-13T21:27:09.000Z</time></trkpt>
        <trkpt lat="29.23193" lon="105.282439"><ele>335.17596</ele><time>2026-02-13T21:27:12.000Z</time></trkpt>
        <trkpt lat="29.231867" lon="105.28243"><ele>335.55096</ele><time>2026-02-13T21:27:18.000Z</time></trkpt>
        <trkpt lat="29.231818" lon="105.282415"><ele>335.70047</ele><time>2026-02-13T21:27:22.000Z</time></trkpt>
        <trkpt lat="29.231765" lon="105.282384"><ele>334.91095</ele><time>2026-02-13T21:27:28.000Z</time></trkpt>
        <trkpt lat="29.231721" lon="105.282344"><ele>334.42633</ele><time>2026-02-13T21:27:33.000Z</time></trkpt>
        <trkpt lat="29.231692" lon="105.28229"><ele>334.1721</ele><time>2026-02-13T21:27:39.000Z</time></trkpt>
        <trkpt lat="29.231656" lon="105.282258"><ele>334.3173</ele><time>2026-02-13T21:27:45.000Z</time></trkpt>
        <trkpt lat="29.231629" lon="105.282215"><ele>334.73297</ele><time>2026-02-13T21:27:50.000Z</time></trkpt>
        <trkpt lat="29.231614" lon="105.282157"><ele>334.27164</ele><time>2026-02-13T21:27:57.000Z</time></trkpt>
        <trkpt lat="29.231591" lon="105.28211"><ele>332.4854</ele><time>2026-02-13T21:28:05.000Z</time></trkpt>
        <trkpt lat="29.231582" lon="105.282069"><ele>332.0276</ele><time>2026-02-13T21:28:09.000Z</time></trkpt>
        <trkpt lat="29.231577" lon="105.282017"><ele>331.58765</ele><time>2026-02-13T21:28:13.000Z</time></trkpt>
        <trkpt lat="29.231587" lon="105.281954"><ele>330.57202</ele><time>2026-02-13T21:28:18.000Z</time></trkpt>
        <trkpt lat="29.231597" lon="105.281902"><ele>329.90976</ele><time>2026-02-13T21:28:22.000Z</time></trkpt>
        <trkpt lat="29.231607" lon="105.28185"><ele>329.42572</ele><time>2026-02-13T21:28:26.000Z</time></trkpt>
        <trkpt lat="29.231614" lon="105.281797"><ele>329.40427</ele><time>2026-02-13T21:28:30.000Z</time></trkpt>
        <trkpt lat="29.231609" lon="105.281733"><ele>329.9382</ele><time>2026-02-13T21:28:34.000Z</time></trkpt>
        <trkpt lat="29.231595" lon="105.281671"><ele>329.27847</ele><time>2026-02-13T21:28:43.000Z</time></trkpt>
        <trkpt lat="29.231589" lon="105.281619"><ele>329.77844</ele><time>2026-02-13T21:28:48.000Z</time></trkpt>
        <trkpt lat="29.231575" lon="105.281557"><ele>330.65906</ele><time>2026-02-13T21:28:54.000Z</time></trkpt>
        <trkpt lat="29.231565" lon="105.281499"><ele>332.23596</ele><time>2026-02-13T21:29:04.000Z</time></trkpt>
        <trkpt lat="29.231542" lon="105.28146"><ele>333.32135</ele><time>2026-02-13T21:29:11.000Z</time></trkpt>
        <trkpt lat="29.231522" lon="105.281405"><ele>333.89743</ele><time>2026-02-13T21:29:17.000Z</time></trkpt>
        <trkpt lat="29.231506" lon="105.281442"><ele>333.84427</ele><time>2026-02-13T21:29:29.000Z</time></trkpt>
        <trkpt lat="29.231469" lon="105.28148"><ele>334.0527</ele><time>2026-02-13T21:29:39.000Z</time></trkpt>
        <trkpt lat="29.231423" lon="105.281482"><ele>335.1134</ele><time>2026-02-13T21:29:45.000Z</time></trkpt>
        <trkpt lat="29.231369" lon="105.281461"><ele>336.25705</ele><time>2026-02-13T21:29:57.000Z</time></trkpt>
        <trkpt lat="29.23132" lon="105.281449"><ele>336.8408</ele><time>2026-02-13T21:30:04.000Z</time></trkpt>
        <trkpt lat="29.231267" lon="105.281435"><ele>337.90378</ele><time>2026-02-13T21:30:09.000Z</time></trkpt>
        <trkpt lat="29.231214" lon="105.281406"><ele>338.71375</ele><time>2026-02-13T21:30:15.000Z</time></trkpt>
        <trkpt lat="29.231168" lon="105.281371"><ele>339.00275</ele><time>2026-02-13T21:30:25.000Z</time></trkpt>
        <trkpt lat="29.23114" lon="105.281341"><ele>339.0185</ele><time>2026-02-13T21:30:30.000Z</time></trkpt>
        <trkpt lat="29.231096" lon="105.281309"><ele>339.1059</ele><time>2026-02-13T21:30:36.000Z</time></trkpt>
        <trkpt lat="29.231049" lon="105.281287"><ele>339.56488</ele><time>2026-02-13T21:30:41.000Z</time></trkpt>
        <trkpt lat="29.231006" lon="105.281252"><ele>339.54218</ele><time>2026-02-13T21:30:47.000Z</time></trkpt>
        <trkpt lat="29.230968" lon="105.281227"><ele>338.95633</ele><time>2026-02-13T21:30:52.000Z</time></trkpt>
        <trkpt lat="29.230928" lon="105.281193"><ele>338.2553</ele><time>2026-02-13T21:30:58.000Z</time></trkpt>
        <trkpt lat="29.230881" lon="105.281182"><ele>338.4214</ele><time>2026-02-13T21:31:06.000Z</time></trkpt>
        <trkpt lat="29.230847" lon="105.281155"><ele>338.0333</ele><time>2026-02-13T21:31:11.000Z</time></trkpt>
        <trkpt lat="29.230799" lon="105.28111"><ele>336.76346</ele><time>2026-02-13T21:32:01.000Z</time></trkpt>
        <trkpt lat="29.230769" lon="105.28109"><ele>336.6915</ele><time>2026-02-13T21:32:06.000Z</time></trkpt>
        <trkpt lat="29.230722" lon="105.281055"><ele>336.43835</ele><time>2026-02-13T21:32:12.000Z</time></trkpt>
        <trkpt lat="29.230674" lon="105.281013"><ele>335.65387</ele><time>2026-02-13T21:32:24.000Z</time></trkpt>
        <trkpt lat="29.230637" lon="105.280987"><ele>334.82996</ele><time>2026-02-13T21:32:29.000Z</time></trkpt>
        <trkpt lat="29.230592" lon="105.280954"><ele>334.0974</ele><time>2026-02-13T21:32:34.000Z</time></trkpt>
        <trkpt lat="29.230551" lon="105.280917"><ele>333.2613</ele><time>2026-02-13T21:32:39.000Z</time></trkpt>
        <trkpt lat="29.230511" lon="105.280873"><ele>332.58377</ele><time>2026-02-13T21:32:44.000Z</time></trkpt>
        <trkpt lat="29.230474" lon="105.280843"><ele>332.52213</ele><time>2026-02-13T21:32:48.000Z</time></trkpt>
        <trkpt lat="29.230437" lon="105.280803"><ele>331.8992</ele><time>2026-02-13T21:32:53.000Z</time></trkpt>
        <trkpt lat="29.230397" lon="105.280762"><ele>331.65067</ele><time>2026-02-13T21:32:58.000Z</time></trkpt>
        <trkpt lat="29.230354" lon="105.280727"><ele>331.42242</ele><time>2026-02-13T21:33:02.000Z</time></trkpt>
        <trkpt lat="29.230345" lon="105.28067"><ele>331.4563</ele><time>2026-02-13T21:33:07.000Z</time></trkpt>
        <trkpt lat="29.230376" lon="105.280647"><ele>331.07797</ele><time>2026-02-13T21:33:10.000Z</time></trkpt>
        <trkpt lat="29.230425" lon="105.280633"><ele>329.97577</ele><time>2026-02-13T21:33:14.000Z</time></trkpt>
        <trkpt lat="29.230489" lon="105.280636"><ele>328.26025</ele><time>2026-02-13T21:33:19.000Z</time></trkpt>
        <trkpt lat="29.230551" lon="105.280642"><ele>327.06226</ele><time>2026-02-13T21:33:25.000Z</time></trkpt>
        <trkpt lat="29.230593" lon="105.280618"><ele>326.03116</ele><time>2026-02-13T21:33:33.000Z</time></trkpt>
        <trkpt lat="29.230581" lon="105.28056"><ele>324.99457</ele><time>2026-02-13T21:33:47.000Z</time></trkpt>
        <trkpt lat="29.230554" lon="105.280524"><ele>324.8542</ele><time>2026-02-13T21:33:51.000Z</time></trkpt>
        <trkpt lat="29.230503" lon="105.280498"><ele>324.27307</ele><time>2026-02-13T21:33:57.000Z</time></trkpt>
        <trkpt lat="29.230461" lon="105.280464"><ele>324.38992</ele><time>2026-02-13T21:34:02.000Z</time></trkpt>
        <trkpt lat="29.230436" lon="105.280414"><ele>324.3443</ele><time>2026-02-13T21:34:07.000Z</time></trkpt>
        <trkpt lat="29.230423" lon="105.280356"><ele>324.43332</ele><time>2026-02-13T21:34:12.000Z</time></trkpt>
        <trkpt lat="29.230413" lon="105.280293"><ele>324.26047</ele><time>2026-02-13T21:34:17.000Z</time></trkpt>
        <trkpt lat="29.230406" lon="105.280224"><ele>323.80182</ele><time>2026-02-13T21:34:23.000Z</time></trkpt>
        <trkpt lat="29.23039" lon="105.280167"><ele>323.2864</ele><time>2026-02-13T21:34:28.000Z</time></trkpt>
        <trkpt lat="29.230368" lon="105.280112"><ele>322.8389</ele><time>2026-02-13T21:34:33.000Z</time></trkpt>
        <trkpt lat="29.230338" lon="105.280068"><ele>322.75192</ele><time>2026-02-13T21:34:38.000Z</time></trkpt>
        <trkpt lat="29.230301" lon="105.280035"><ele>322.3897</ele><time>2026-02-13T21:34:43.000Z</time></trkpt>
        <trkpt lat="29.230256" lon="105.280016"><ele>322.48392</ele><time>2026-02-13T21:34:48.000Z</time></trkpt>
        <trkpt lat="29.230204" lon="105.280021"><ele>322.36737</ele><time>2026-02-13T21:34:53.000Z</time></trkpt>
        <trkpt lat="29.230156" lon="105.280038"><ele>322.3238</ele><time>2026-02-13T21:34:57.000Z</time></trkpt>
        <trkpt lat="29.230111" lon="105.280073"><ele>322.52783</ele><time>2026-02-13T21:35:02.000Z</time></trkpt>
        <trkpt lat="29.230064" lon="105.280096"><ele>322.52368</ele><time>2026-02-13T21:35:07.000Z</time></trkpt>
        <trkpt lat="29.23002" lon="105.280104"><ele>322.5676</ele><time>2026-02-13T21:35:11.000Z</time></trkpt>
        <trkpt lat="29.229973" lon="105.280108"><ele>323.0371</ele><time>2026-02-13T21:35:15.000Z</time></trkpt>
        <trkpt lat="29.229918" lon="105.280093"><ele>323.0817</ele><time>2026-02-13T21:35:21.000Z</time></trkpt>
        <trkpt lat="29.229877" lon="105.280079"><ele>323.5727</ele><time>2026-02-13T21:35:25.000Z</time></trkpt>
        <trkpt lat="29.229828" lon="105.280065"><ele>324.1776</ele><time>2026-02-13T21:35:30.000Z</time></trkpt>
        <trkpt lat="29.229784" lon="105.280093"><ele>325.20218</ele><time>2026-02-13T21:35:41.000Z</time></trkpt>
        <trkpt lat="29.229741" lon="105.280108"><ele>325.78436</ele><time>2026-02-13T21:35:47.000Z</time></trkpt>
        <trkpt lat="29.229692" lon="105.280094"><ele>325.45596</ele><time>2026-02-13T21:35:53.000Z</time></trkpt>
        <trkpt lat="29.229646" lon="105.280065"><ele>325.81055</ele><time>2026-02-13T21:35:59.000Z</time></trkpt>
        <trkpt lat="29.229627" lon="105.280016"><ele>325.20468</ele><time>2026-02-13T21:36:04.000Z</time></trkpt>
        <trkpt lat="29.229604" lon="105.279959"><ele>324.29565</ele><time>2026-02-13T21:36:10.000Z</time></trkpt>
        <trkpt lat="29.229596" lon="105.279896"><ele>323.03406</ele><time>2026-02-13T21:36:28.000Z</time></trkpt>
        <trkpt lat="29.229579" lon="105.279863"><ele>323.14413</ele><time>2026-02-13T21:36:33.000Z</time></trkpt>
        <trkpt lat="29.229558" lon="105.279812"><ele>323.16946</ele><time>2026-02-13T21:36:38.000Z</time></trkpt>
        <trkpt lat="29.229533" lon="105.279762"><ele>323.1527</ele><time>2026-02-13T21:36:43.000Z</time></trkpt>
        <trkpt lat="29.229508" lon="105.279709"><ele>322.99988</ele><time>2026-02-13T21:36:48.000Z</time></trkpt>
        <trkpt lat="29.229485" lon="105.279661"><ele>323.1104</ele><time>2026-02-13T21:36:53.000Z</time></trkpt>
        <trkpt lat="29.229464" lon="105.279613"><ele>323.68277</ele><time>2026-02-13T21:36:57.000Z</time></trkpt>
        <trkpt lat="29.229437" lon="105.279566"><ele>324.1907</ele><time>2026-02-13T21:37:02.000Z</time></trkpt>
        <trkpt lat="29.22941" lon="105.27952"><ele>324.95004</ele><time>2026-02-13T21:37:07.000Z</time></trkpt>
        <trkpt lat="29.229381" lon="105.279471"><ele>325.28644</ele><time>2026-02-13T21:37:12.000Z</time></trkpt>
        <trkpt lat="29.229343" lon="105.279418"><ele>326.3387</ele><time>2026-02-13T21:37:18.000Z</time></trkpt>
        <trkpt lat="29.229305" lon="105.279371"><ele>326.82687</ele><time>2026-02-13T21:37:25.000Z</time></trkpt>
        <trkpt lat="29.229272" lon="105.279331"><ele>327.51883</ele><time>2026-02-13T21:37:31.000Z</time></trkpt>
        <trkpt lat="29.22924" lon="105.279288"><ele>327.28812</ele><time>2026-02-13T21:37:39.000Z</time></trkpt>
        <trkpt lat="29.229222" lon="105.279243"><ele>327.24832</ele><time>2026-02-13T21:37:44.000Z</time></trkpt>
        <trkpt lat="29.229193" lon="105.279185"><ele>326.85315</ele><time>2026-02-13T21:37:50.000Z</time></trkpt>
        <trkpt lat="29.22917" lon="105.27913"><ele>326.75934</ele><time>2026-02-13T21:37:56.000Z</time></trkpt>
        <trkpt lat="29.229149" lon="105.279078"><ele>326.74548</ele><time>2026-02-13T21:38:01.000Z</time></trkpt>
        <trkpt lat="29.229134" lon="105.279031"><ele>326.91507</ele><time>2026-02-13T21:38:05.000Z</time></trkpt>
        <trkpt lat="29.229126" lon="105.278974"><ele>326.8655</ele><time>2026-02-13T21:38:10.000Z</time></trkpt>
        <trkpt lat="29.229122" lon="105.278918"><ele>326.8552</ele><time>2026-02-13T21:38:15.000Z</time></trkpt>
        <trkpt lat="29.229107" lon="105.278861"><ele>326.62326</ele><time>2026-02-13T21:38:21.000Z</time></trkpt>
        <trkpt lat="29.229085" lon="105.278811"><ele>326.7863</ele><time>2026-02-13T21:38:26.000Z</time></trkpt>
        <trkpt lat="29.229055" lon="105.278761"><ele>326.92398</ele><time>2026-02-13T21:38:31.000Z</time></trkpt>
        <trkpt lat="29.229023" lon="105.278715"><ele>326.47964</ele><time>2026-02-13T21:38:36.000Z</time></trkpt>
        <trkpt lat="29.228988" lon="105.278671"><ele>326.30353</ele><time>2026-02-13T21:38:41.000Z</time></trkpt>
        <trkpt lat="29.228961" lon="105.278625"><ele>326.25046</ele><time>2026-02-13T21:38:46.000Z</time></trkpt>
        <trkpt lat="29.228926" lon="105.278578"><ele>325.427</ele><time>2026-02-13T21:38:52.000Z</time></trkpt>
        <trkpt lat="29.228893" lon="105.278536"><ele>325.3588</ele><time>2026-02-13T21:38:56.000Z</time></trkpt>
        <trkpt lat="29.228863" lon="105.278495"><ele>325.05048</ele><time>2026-02-13T21:39:01.000Z</time></trkpt>
        <trkpt lat="29.228835" lon="105.278458"><ele>325.1848</ele><time>2026-02-13T21:39:05.000Z</time></trkpt>
        <trkpt lat="29.228805" lon="105.278406"><ele>325.24658</ele><time>2026-02-13T21:39:10.000Z</time></trkpt>
        <trkpt lat="29.228783" lon="105.27836"><ele>325.2212</ele><time>2026-02-13T21:39:14.000Z</time></trkpt>
        <trkpt lat="29.228766" lon="105.278303"><ele>325.30334</ele><time>2026-02-13T21:39:19.000Z</time></trkpt>
        <trkpt lat="29.22875" lon="105.278249"><ele>325.13605</ele><time>2026-02-13T21:39:24.000Z</time></trkpt>
        <trkpt lat="29.228739" lon="105.27819"><ele>324.63153</ele><time>2026-02-13T21:39:29.000Z</time></trkpt>
        <trkpt lat="29.228732" lon="105.278132"><ele>324.44315</ele><time>2026-02-13T21:39:34.000Z</time></trkpt>
        <trkpt lat="29.228731" lon="105.278073"><ele>323.94873</ele><time>2026-02-13T21:39:39.000Z</time></trkpt>
        <trkpt lat="29.228722" lon="105.278014"><ele>323.54196</ele><time>2026-02-13T21:39:44.000Z</time></trkpt>
        <trkpt lat="29.228716" lon="105.277957"><ele>323.57202</ele><time>2026-02-13T21:39:50.000Z</time></trkpt>
        <trkpt lat="29.228719" lon="105.277902"><ele>323.75085</ele><time>2026-02-13T21:40:02.000Z</time></trkpt>
        <trkpt lat="29.228737" lon="105.277863"><ele>323.34225</ele><time>2026-02-13T21:40:07.000Z</time></trkpt>
        <trkpt lat="29.228753" lon="105.27781"><ele>323.4308</ele><time>2026-02-13T21:40:12.000Z</time></trkpt>
        <trkpt lat="29.228769" lon="105.277753"><ele>323.26675</ele><time>2026-02-13T21:40:17.000Z</time></trkpt>
        <trkpt lat="29.228777" lon="105.277697"><ele>323.06763</ele><time>2026-02-13T21:40:22.000Z</time></trkpt>
        <trkpt lat="29.22877" lon="105.277637"><ele>323.1468</ele><time>2026-02-13T21:40:28.000Z</time></trkpt>
        <trkpt lat="29.228777" lon="105.277582"><ele>322.8931</ele><time>2026-02-13T21:40:33.000Z</time></trkpt>
        <trkpt lat="29.228803" lon="105.277529"><ele>322.49625</ele><time>2026-02-13T21:40:38.000Z</time></trkpt>
        <trkpt lat="29.228833" lon="105.277481"><ele>322.70102</ele><time>2026-02-13T21:40:43.000Z</time></trkpt>
        <trkpt lat="29.228865" lon="105.277435"><ele>322.77686</ele><time>2026-02-13T21:40:48.000Z</time></trkpt>
        <trkpt lat="29.228892" lon="105.277389"><ele>322.7717</ele><time>2026-02-13T21:40:53.000Z</time></trkpt>
        <trkpt lat="29.228923" lon="105.277334"><ele>322.0244</ele><time>2026-02-13T21:41:01.000Z</time></trkpt>
        <trkpt lat="29.228953" lon="105.277294"><ele>321.37796</ele><time>2026-02-13T21:41:08.000Z</time></trkpt>
        <trkpt lat="29.228983" lon="105.277248"><ele>321.68335</ele><time>2026-02-13T21:41:14.000Z</time></trkpt>
        <trkpt lat="29.228995" lon="105.277189"><ele>321.29852</ele><time>2026-02-13T21:41:20.000Z</time></trkpt>
        <trkpt lat="29.229006" lon="105.277131"><ele>321.3348</ele><time>2026-02-13T21:41:25.000Z</time></trkpt>
        <trkpt lat="29.229024" lon="105.277076"><ele>321.16776</ele><time>2026-02-13T21:41:31.000Z</time></trkpt>
        <trkpt lat="29.229035" lon="105.277031"><ele>321.5465</ele><time>2026-02-13T21:41:35.000Z</time></trkpt>
        <trkpt lat="29.229059" lon="105.27698"><ele>321.6037</ele><time>2026-02-13T21:41:40.000Z</time></trkpt>
        <trkpt lat="29.229091" lon="105.276927"><ele>321.91876</ele><time>2026-02-13T21:41:47.000Z</time></trkpt>
        <trkpt lat="29.229102" lon="105.276866"><ele>321.1075</ele><time>2026-02-13T21:42:12.000Z</time></trkpt>
        <trkpt lat="29.229098" lon="105.276829"><ele>320.85336</ele><time>2026-02-13T21:42:17.000Z</time></trkpt>
        <trkpt lat="29.229094" lon="105.276772"><ele>321.29578</ele><time>2026-02-13T21:42:22.000Z</time></trkpt>
        <trkpt lat="29.229082" lon="105.276707"><ele>321.57065</ele><time>2026-02-13T21:42:28.000Z</time></trkpt>
        <trkpt lat="29.229054" lon="105.276657"><ele>320.9972</ele><time>2026-02-13T21:42:34.000Z</time></trkpt>
        <trkpt lat="29.229016" lon="105.276636"><ele>320.8018</ele><time>2026-02-13T21:42:38.000Z</time></trkpt>
        <trkpt lat="29.228965" lon="105.276606"><ele>321.03516</ele><time>2026-02-13T21:42:44.000Z</time></trkpt>
        <trkpt lat="29.228919" lon="105.276589"><ele>321.2685</ele><time>2026-02-13T21:42:48.000Z</time></trkpt>
        <trkpt lat="29.228869" lon="105.276567"><ele>321.88846</ele><time>2026-02-13T21:43:37.000Z</time></trkpt>
        <trkpt lat="29.22884" lon="105.276546"><ele>321.77145</ele><time>2026-02-13T21:43:43.000Z</time></trkpt>
        <trkpt lat="29.228795" lon="105.276513"><ele>321.78735</ele><time>2026-02-13T21:43:48.000Z</time></trkpt>
        <trkpt lat="29.228755" lon="105.276472"><ele>321.5054</ele><time>2026-02-13T21:43:53.000Z</time></trkpt>
        <trkpt lat="29.228721" lon="105.276426"><ele>321.40244</ele><time>2026-02-13T21:43:58.000Z</time></trkpt>
        <trkpt lat="29.228697" lon="105.276376"><ele>321.3583</ele><time>2026-02-13T21:44:03.000Z</time></trkpt>
        <trkpt lat="29.228676" lon="105.276323"><ele>321.17578</ele><time>2026-02-13T21:44:08.000Z</time></trkpt>
        <trkpt lat="29.228633" lon="105.276287"><ele>321.3969</ele><time>2026-02-13T21:44:14.000Z</time></trkpt>
        <trkpt lat="29.22858" lon="105.276285"><ele>321.14554</ele><time>2026-02-13T21:44:20.000Z</time></trkpt>
        <trkpt lat="29.228533" lon="105.276286"><ele>320.7657</ele><time>2026-02-13T21:44:25.000Z</time></trkpt>
        <trkpt lat="29.228484" lon="105.276277"><ele>320.31442</ele><time>2026-02-13T21:44:30.000Z</time></trkpt>
        <trkpt lat="29.22843" lon="105.276269"><ele>320.59833</ele><time>2026-02-13T21:44:35.000Z</time></trkpt>
        <trkpt lat="29.228384" lon="105.276262"><ele>320.666</ele><time>2026-02-13T21:44:39.000Z</time></trkpt>
        <trkpt lat="29.228333" lon="105.276254"><ele>321.36728</ele><time>2026-02-13T21:44:44.000Z</time></trkpt>
        <trkpt lat="29.228286" lon="105.276248"><ele>320.77396</ele><time>2026-02-13T21:44:49.000Z</time></trkpt>
        <trkpt lat="29.228238" lon="105.276241"><ele>320.92416</ele><time>2026-02-13T21:44:54.000Z</time></trkpt>
        <trkpt lat="29.228191" lon="105.276232"><ele>320.95663</ele><time>2026-02-13T21:44:59.000Z</time></trkpt>
        <trkpt lat="29.228143" lon="105.276227"><ele>321.64502</ele><time>2026-02-13T21:45:04.000Z</time></trkpt>
        <trkpt lat="29.228091" lon="105.276221"><ele>321.97726</ele><time>2026-02-13T21:45:09.000Z</time></trkpt>
        <trkpt lat="29.228043" lon="105.276218"><ele>322.00385</ele><time>2026-02-13T21:45:13.000Z</time></trkpt>
        <trkpt lat="29.227997" lon="105.276212"><ele>322.41095</ele><time>2026-02-13T21:45:17.000Z</time></trkpt>
        <trkpt lat="29.227947" lon="105.276201"><ele>322.4285</ele><time>2026-02-13T21:45:22.000Z</time></trkpt>
        <trkpt lat="29.227894" lon="105.276194"><ele>322.13757</ele><time>2026-02-13T21:45:28.000Z</time></trkpt>
        <trkpt lat="29.227849" lon="105.276188"><ele>321.38516</ele><time>2026-02-13T21:45:34.000Z</time></trkpt>
        <trkpt lat="29.227805" lon="105.276174"><ele>321.63455</ele><time>2026-02-13T21:45:38.000Z</time></trkpt>
        <trkpt lat="29.227753" lon="105.276161"><ele>321.1804</ele><time>2026-02-13T21:45:43.000Z</time></trkpt>
        <trkpt lat="29.227701" lon="105.276155"><ele>321.75214</ele><time>2026-02-13T21:45:48.000Z</time></trkpt>
        <trkpt lat="29.22766" lon="105.27614"><ele>323.33557</ele><time>2026-02-13T21:45:51.000Z</time></trkpt>
        <trkpt lat="29.227605" lon="105.276101"><ele>323.7127</ele><time>2026-02-13T21:45:59.000Z</time></trkpt>
        <trkpt lat="29.227568" lon="105.276092"><ele>323.31927</ele><time>2026-02-13T21:46:03.000Z</time></trkpt>
        <trkpt lat="29.227523" lon="105.276073"><ele>322.86682</ele><time>2026-02-13T21:46:08.000Z</time></trkpt>
        <trkpt lat="29.227473" lon="105.276054"><ele>323.01367</ele><time>2026-02-13T21:46:13.000Z</time></trkpt>
        <trkpt lat="29.227422" lon="105.276045"><ele>322.60254</ele><time>2026-02-13T21:46:18.000Z</time></trkpt>
        <trkpt lat="29.22738" lon="105.276031"><ele>323.17447</ele><time>2026-02-13T21:46:22.000Z</time></trkpt>
        <trkpt lat="29.22733" lon="105.276015"><ele>323.00558</ele><time>2026-02-13T21:46:27.000Z</time></trkpt>
        <trkpt lat="29.227279" lon="105.275998"><ele>323.23907</ele><time>2026-02-13T21:46:32.000Z</time></trkpt>
        <trkpt lat="29.227228" lon="105.275981"><ele>323.27313</ele><time>2026-02-13T21:46:38.000Z</time></trkpt>
        <trkpt lat="29.22717" lon="105.275973"><ele>323.38385</ele><time>2026-02-13T21:46:44.000Z</time></trkpt>
        <trkpt lat="29.227118" lon="105.275962"><ele>323.45502</ele><time>2026-02-13T21:46:49.000Z</time></trkpt>
        <trkpt lat="29.227065" lon="105.275947"><ele>322.94876</ele><time>2026-02-13T21:46:54.000Z</time></trkpt>
        <trkpt lat="29.227021" lon="105.275932"><ele>322.49045</ele><time>2026-02-13T21:46:58.000Z</time></trkpt>
        <trkpt lat="29.226968" lon="105.275913"><ele>322.4571</ele><time>2026-02-13T21:47:03.000Z</time></trkpt>
        <trkpt lat="29.226914" lon="105.275888"><ele>322.3333</ele><time>2026-02-13T21:47:10.000Z</time></trkpt>
        <trkpt lat="29.226875" lon="105.275872"><ele>322.1253</ele><time>2026-02-13T21:47:14.000Z</time></trkpt>
        <trkpt lat="29.226826" lon="105.275842"><ele>322.49017</ele><time>2026-02-13T21:47:19.000Z</time></trkpt>
        <trkpt lat="29.226787" lon="105.275807"><ele>322.29657</ele><time>2026-02-13T21:47:24.000Z</time></trkpt>
        <trkpt lat="29.226747" lon="105.27577"><ele>321.97073</ele><time>2026-02-13T21:47:29.000Z</time></trkpt>
        <trkpt lat="29.226708" lon="105.275734"><ele>321.451</ele><time>2026-02-13T21:47:34.000Z</time></trkpt>
        <trkpt lat="29.226663" lon="105.275702"><ele>322.6849</ele><time>2026-02-13T21:47:39.000Z</time></trkpt>
        <trkpt lat="29.226626" lon="105.275666"><ele>322.94177</ele><time>2026-02-13T21:47:44.000Z</time></trkpt>
        <trkpt lat="29.226625" lon="105.275618"><ele>322.1354</ele><time>2026-02-13T21:47:48.000Z</time></trkpt>
        <trkpt lat="29.226608" lon="105.275574"><ele>322.89578</ele><time>2026-02-13T21:47:52.000Z</time></trkpt>
        <trkpt lat="29.226565" lon="105.275538"><ele>322.72482</ele><time>2026-02-13T21:47:56.000Z</time></trkpt>
        <trkpt lat="29.226526" lon="105.27551"><ele>323.2456</ele><time>2026-02-13T21:48:00.000Z</time></trkpt>
        <trkpt lat="29.226474" lon="105.275474"><ele>323.38757</ele><time>2026-02-13T21:48:06.000Z</time></trkpt>
        <trkpt lat="29.226423" lon="105.275439"><ele>323.87164</ele><time>2026-02-13T21:48:12.000Z</time></trkpt>
        <trkpt lat="29.226378" lon="105.275405"><ele>324.53094</ele><time>2026-02-13T21:48:17.000Z</time></trkpt>
        <trkpt lat="29.22633" lon="105.275377"><ele>324.79483</ele><time>2026-02-13T21:48:22.000Z</time></trkpt>
        <trkpt lat="29.226286" lon="105.275348"><ele>324.19595</ele><time>2026-02-13T21:48:28.000Z</time></trkpt>
        <trkpt lat="29.226248" lon="105.275325"><ele>324.66452</ele><time>2026-02-13T21:48:32.000Z</time></trkpt>
        <trkpt lat="29.226205" lon="105.275293"><ele>325.17725</ele><time>2026-02-13T21:48:37.000Z</time></trkpt>
        <trkpt lat="29.226169" lon="105.275254"><ele>325.76465</ele><time>2026-02-13T21:48:43.000Z</time></trkpt>
        <trkpt lat="29.226127" lon="105.275282"><ele>325.03104</ele><time>2026-02-13T21:50:03.000Z</time></trkpt>
      </trkseg>
  </trk>
</gpx>